SWR188 LSZH-ZSPD
Flight info
| Callsign | SWR188 |
|---|---|
| Flight time | 11h 12m |
| Altitude | 31000 |
| Route | DEGES Z2 UMVEG DCT DIMLO DCT INVED DCT NERDI DCT ASNEL DCT DINRO DCT UDROS/N0474F330 UM859 KARDE UN644 ROLIN DCT TETRO DCT BARAD M747 SUBUT T916 LEYLA N161 GASBI/K0863F330 N161 DIVNO/K0863F350 N161 SARIN/K0857S1070 A368 FKG W188 BATUS/K0850S1130 W188 LIKMI W270 DKO W64 NUTLO B208 CGO W129 KAMDA W128 FYG B208 HFE R343 SASAN SAS82A |
| Aircraft | A343/H-SDE2E3FGHIJ4J5M1RWXY/LB1D1 |
Departure
| Time | 2026-05-04 12:15 |
|---|---|
| Airport | Zürich Airport (LSZH) |
Arrival
| Time | 2026-05-04 23:28 |
|---|---|
| Airport | Shanghai Pudong International Airport (ZSPD) |
| Time | Latitude | Longitude | Altitude | Speed | Heading |
|---|---|---|---|---|---|
| 2026-05-04 11:35 | 47.46199 | 8.55189 | 1480 ft | 0 kts | 185° |
| 2026-05-04 11:58 | 47.46207 | 8.55190 | 1398 ft | 4 kts | 185° |
| 2026-05-04 11:59 | 47.46234 | 8.55194 | 1402 ft | 4 kts | 185° |
| 2026-05-04 11:59 | 47.46256 | 8.55196 | 1405 ft | 4 kts | 164° |
| 2026-05-04 11:59 | 47.46274 | 8.55176 | 1407 ft | 4 kts | 111° |
| 2026-05-04 11:59 | 47.46280 | 8.55137 | 1407 ft | 4 kts | 97° |
| 2026-05-04 12:00 | 47.46283 | 8.55107 | 1395 ft | 4 kts | 108° |
| 2026-05-04 12:00 | 47.46296 | 8.55075 | 1406 ft | 4 kts | 147° |
| 2026-05-04 12:00 | 47.46319 | 8.55063 | 1404 ft | 4 kts | 179° |
| 2026-05-04 12:00 | 47.46346 | 8.55066 | 1404 ft | 4 kts | 186° |
| 2026-05-04 12:01 | 47.46351 | 8.55067 | 1403 ft | 0 kts | 185° |
| 2026-05-04 12:07 | 47.46337 | 8.55065 | 1403 ft | 5 kts | 185° |
| 2026-05-04 12:07 | 47.46301 | 8.55038 | 1404 ft | 7 kts | 228° |
| 2026-05-04 12:07 | 47.46294 | 8.54956 | 1402 ft | 10 kts | 275° |
| 2026-05-04 12:07 | 47.46302 | 8.54850 | 1393 ft | 11 kts | 276° |
| 2026-05-04 12:08 | 47.46326 | 8.54739 | 1385 ft | 12 kts | 310° |
| 2026-05-04 12:08 | 47.46400 | 8.54679 | 1385 ft | 12 kts | 335° |
| 2026-05-04 12:08 | 47.46470 | 8.54633 | 1401 ft | 10 kts | 336° |
| 2026-05-04 12:08 | 47.46529 | 8.54594 | 1402 ft | 9 kts | 334° |
| 2026-05-04 12:09 | 47.46580 | 8.54559 | 1401 ft | 8 kts | 335° |
| 2026-05-04 12:09 | 47.46633 | 8.54521 | 1401 ft | 10 kts | 333° |
| 2026-05-04 12:09 | 47.46698 | 8.54475 | 1385 ft | 11 kts | 334° |
| 2026-05-04 12:09 | 47.46775 | 8.54428 | 1383 ft | 13 kts | 340° |
| 2026-05-04 12:10 | 47.46860 | 8.54378 | 1382 ft | 13 kts | 335° |
| 2026-05-04 12:10 | 47.46938 | 8.54325 | 1386 ft | 11 kts | 335° |
| 2026-05-04 12:10 | 47.47005 | 8.54278 | 1385 ft | 10 kts | 334° |
| 2026-05-04 12:10 | 47.47065 | 8.54235 | 1387 ft | 9 kts | 334° |
| 2026-05-04 12:11 | 47.47118 | 8.54197 | 1388 ft | 8 kts | 334° |
| 2026-05-04 12:11 | 47.47165 | 8.54166 | 1386 ft | 7 kts | 336° |
| 2026-05-04 12:11 | 47.47217 | 8.54132 | 1389 ft | 9 kts | 335° |
| 2026-05-04 12:11 | 47.47278 | 8.54090 | 1399 ft | 10 kts | 335° |
| 2026-05-04 12:12 | 47.47348 | 8.54042 | 1403 ft | 11 kts | 334° |
| 2026-05-04 12:12 | 47.47414 | 8.53996 | 1399 ft | 10 kts | 335° |
| 2026-05-04 12:12 | 47.47474 | 8.53954 | 1407 ft | 10 kts | 335° |
| 2026-05-04 12:12 | 47.47540 | 8.53909 | 1409 ft | 11 kts | 335° |
| 2026-05-04 12:13 | 47.47601 | 8.53835 | 1410 ft | 12 kts | 299° |
| 2026-05-04 12:14 | 47.46501 | 8.54333 | 1383 ft | 122 kts | 155° |
| 2026-05-04 12:15 | 47.45618 | 8.54941 | 1410 ft | 156 kts | 154° |
| 2026-05-04 12:15 | 47.44964 | 8.55395 | 1606 ft | 159 kts | 152° |
| 2026-05-04 12:15 | 47.43947 | 8.56116 | 1997 ft | 164 kts | 151° |
| 2026-05-04 12:15 | 47.43056 | 8.57170 | 2301 ft | 167 kts | 114° |
| 2026-05-04 12:16 | 47.42917 | 8.58832 | 2691 ft | 169 kts | 72° |
| 2026-05-04 12:16 | 47.43894 | 8.60677 | 3122 ft | 181 kts | 39° |
| 2026-05-04 12:16 | 47.44555 | 8.61495 | 3372 ft | 188 kts | 37° |
| 2026-05-04 12:16 | 47.45566 | 8.62788 | 3734 ft | 196 kts | 51° |
| 2026-05-04 12:17 | 47.45966 | 8.64696 | 4223 ft | 200 kts | 88° |
| 2026-05-04 12:17 | 47.46034 | 8.66737 | 4844 ft | 199 kts | 84° |
| 2026-05-04 12:17 | 47.46166 | 8.68774 | 5417 ft | 198 kts | 85° |
| 2026-05-04 12:17 | 47.46323 | 8.70812 | 5972 ft | 202 kts | 86° |
| 2026-05-04 12:18 | 47.46479 | 8.72884 | 6480 ft | 204 kts | 87° |
| 2026-05-04 12:18 | 47.46622 | 8.75001 | 6932 ft | 210 kts | 88° |
| 2026-05-04 12:18 | 47.46714 | 8.77203 | 7334 ft | 219 kts | 89° |
| 2026-05-04 12:18 | 47.46786 | 8.79482 | 7787 ft | 226 kts | 90° |
| 2026-05-04 12:19 | 47.46819 | 8.81841 | 8279 ft | 231 kts | 93° |
| 2026-05-04 12:19 | 47.46660 | 8.84204 | 8776 ft | 233 kts | 108° |
| 2026-05-04 12:19 | 47.46267 | 8.86585 | 9138 ft | 246 kts | 106° |
| 2026-05-04 12:19 | 47.45844 | 8.89136 | 9387 ft | 265 kts | 106° |
| 2026-05-04 12:20 | 47.45395 | 8.91874 | 9742 ft | 280 kts | 105° |
| 2026-05-04 12:20 | 47.44957 | 8.94726 | 10241 ft | 290 kts | 104° |
| 2026-05-04 12:20 | 47.44511 | 8.97715 | 10527 ft | 306 kts | 104° |
| 2026-05-04 12:20 | 47.44049 | 9.00875 | 10810 ft | 322 kts | 104° |
| 2026-05-04 12:21 | 47.43580 | 9.04138 | 11097 ft | 336 kts | 104° |
| 2026-05-04 12:21 | 47.43081 | 9.07583 | 11314 ft | 350 kts | 104° |
| 2026-05-04 12:21 | 47.42560 | 9.11170 | 11583 ft | 364 kts | 103° |
| 2026-05-04 12:21 | 47.42022 | 9.14876 | 11950 ft | 374 kts | 104° |
| 2026-05-04 12:22 | 47.41535 | 9.18681 | 12481 ft | 381 kts | 97° |
| 2026-05-04 12:22 | 47.41576 | 9.22603 | 13132 ft | 385 kts | 84° |
| 2026-05-04 12:22 | 47.41986 | 9.26522 | 13738 ft | 389 kts | 79° |
| 2026-05-04 12:22 | 47.42573 | 9.30448 | 14270 ft | 394 kts | 77° |
| 2026-05-04 12:23 | 47.43238 | 9.34409 | 14726 ft | 399 kts | 77° |
| 2026-05-04 12:23 | 47.43916 | 9.38407 | 15269 ft | 403 kts | 77° |
| 2026-05-04 12:23 | 47.44583 | 9.42437 | 15817 ft | 406 kts | 77° |
| 2026-05-04 12:23 | 47.45233 | 9.46507 | 16354 ft | 409 kts | 78° |
| 2026-05-04 12:24 | 47.45867 | 9.50621 | 16877 ft | 412 kts | 79° |
| 2026-05-04 12:24 | 47.46493 | 9.54767 | 17379 ft | 415 kts | 79° |
| 2026-05-04 12:24 | 47.46996 | 9.58978 | 17897 ft | 416 kts | 88° |
| 2026-05-04 12:24 | 47.47064 | 9.63256 | 18381 ft | 418 kts | 93° |
| 2026-05-04 12:25 | 47.46955 | 9.67503 | 18771 ft | 421 kts | 96° |
| 2026-05-04 12:25 | 47.46746 | 9.71838 | 19212 ft | 424 kts | 97° |
| 2026-05-04 12:25 | 47.46489 | 9.76177 | 19660 ft | 426 kts | 98° |
| 2026-05-04 12:25 | 47.46216 | 9.80557 | 20117 ft | 429 kts | 98° |
| 2026-05-04 12:26 | 47.45943 | 9.84964 | 20564 ft | 432 kts | 97° |
| 2026-05-04 12:26 | 47.45675 | 9.89402 | 20974 ft | 436 kts | 97° |
| 2026-05-04 12:26 | 47.45416 | 9.93869 | 21429 ft | 438 kts | 97° |
| 2026-05-04 12:26 | 47.45159 | 9.98372 | 21860 ft | 441 kts | 97° |
| 2026-05-04 12:27 | 47.44898 | 10.02904 | 22222 ft | 444 kts | 97° |
| 2026-05-04 12:27 | 47.44632 | 10.07519 | 22700 ft | 446 kts | 97° |
| 2026-05-04 12:27 | 47.44370 | 10.12039 | 23063 ft | 449 kts | 97° |
| 2026-05-04 12:27 | 47.44081 | 10.16640 | 23428 ft | 451 kts | 100° |
| 2026-05-04 12:28 | 47.43586 | 10.21222 | 23810 ft | 452 kts | 102° |
| 2026-05-04 12:28 | 47.43023 | 10.25800 | 24137 ft | 454 kts | 103° |
| 2026-05-04 12:28 | 47.42421 | 10.30384 | 24455 ft | 456 kts | 103° |
| 2026-05-04 12:28 | 47.41797 | 10.34988 | 24787 ft | 458 kts | 104° |
| 2026-05-04 12:29 | 47.41162 | 10.39615 | 25120 ft | 460 kts | 104° |
| 2026-05-04 12:29 | 47.40524 | 10.44250 | 25430 ft | 462 kts | 104° |
| 2026-05-04 12:29 | 47.39883 | 10.48906 | 25781 ft | 463 kts | 104° |
| 2026-05-04 12:29 | 47.39249 | 10.53554 | 26082 ft | 463 kts | 104° |
| 2026-05-04 12:30 | 47.38603 | 10.58234 | 26329 ft | 467 kts | 104° |
| 2026-05-04 12:30 | 47.37949 | 10.62934 | 26646 ft | 469 kts | 104° |
| 2026-05-04 12:30 | 47.37292 | 10.67648 | 26951 ft | 470 kts | 104° |
| 2026-05-04 12:30 | 47.36631 | 10.72386 | 27218 ft | 472 kts | 104° |
| 2026-05-04 12:31 | 47.35966 | 10.77135 | 27512 ft | 474 kts | 104° |
| 2026-05-04 12:31 | 47.35299 | 10.81893 | 27786 ft | 475 kts | 104° |
| 2026-05-04 12:31 | 47.34630 | 10.86650 | 28011 ft | 478 kts | 104° |
| 2026-05-04 12:31 | 47.33948 | 10.91487 | 28251 ft | 480 kts | 104° |
| 2026-05-04 12:32 | 47.33267 | 10.96311 | 28505 ft | 482 kts | 104° |
| 2026-05-04 12:32 | 47.31890 | 11.06008 | 29037 ft | 485 kts | 104° |
| 2026-05-04 12:32 | 47.31193 | 11.10887 | 29291 ft | 487 kts | 104° |
| 2026-05-04 12:33 | 47.30493 | 11.15775 | 29543 ft | 489 kts | 104° |
| 2026-05-04 12:33 | 47.29787 | 11.20685 | 29787 ft | 490 kts | 104° |
| 2026-05-04 12:33 | 47.29082 | 11.25585 | 30107 ft | 489 kts | 104° |
| 2026-05-04 12:33 | 47.28373 | 11.30491 | 30358 ft | 489 kts | 104° |
| 2026-05-04 12:34 | 47.27667 | 11.35367 | 30700 ft | 487 kts | 104° |
| 2026-05-04 12:34 | 47.26957 | 11.40253 | 30924 ft | 488 kts | 104° |
| 2026-05-04 12:34 | 47.26244 | 11.45129 | 30964 ft | 485 kts | 104° |
| 2026-05-04 12:35 | 47.24867 | 11.54758 | 30968 ft | 480 kts | 102° |
| 2026-05-04 12:35 | 47.23811 | 11.64452 | 30973 ft | 480 kts | 100° |
| 2026-05-04 12:36 | 47.22835 | 11.74159 | 30982 ft | 479 kts | 100° |
| 2026-05-04 12:36 | 47.21809 | 11.83834 | 31000 ft | 479 kts | 101° |
| 2026-05-04 12:37 | 47.20756 | 11.93501 | 31005 ft | 479 kts | 100° |
| 2026-05-04 12:37 | 47.19818 | 12.03145 | 31012 ft | 479 kts | 99° |
| 2026-05-04 12:38 | 47.18902 | 12.12849 | 31013 ft | 479 kts | 99° |
| 2026-05-04 12:38 | 47.17961 | 12.22546 | 31013 ft | 479 kts | 100° |
| 2026-05-04 12:39 | 47.17002 | 12.32227 | 31018 ft | 479 kts | 100° |
| 2026-05-04 12:39 | 47.16029 | 12.41910 | 31012 ft | 479 kts | 100° |
| 2026-05-04 12:40 | 47.15044 | 12.51618 | 31100 ft | 484 kts | 100° |
| 2026-05-04 12:40 | 47.14543 | 12.56530 | 31227 ft | 487 kts | 100° |
| 2026-05-04 12:40 | 47.14040 | 12.61457 | 31388 ft | 489 kts | 100° |
| 2026-05-04 12:40 | 47.13535 | 12.66388 | 31693 ft | 487 kts | 100° |
| 2026-05-04 12:41 | 47.13029 | 12.71312 | 31902 ft | 488 kts | 100° |
| 2026-05-04 12:41 | 47.12519 | 12.76235 | 32151 ft | 487 kts | 100° |
| 2026-05-04 12:41 | 47.12010 | 12.81138 | 32445 ft | 486 kts | 100° |
| 2026-05-04 12:41 | 47.11497 | 12.86050 | 32633 ft | 487 kts | 100° |
| 2026-05-04 12:42 | 47.10983 | 12.90950 | 32889 ft | 485 kts | 100° |
| 2026-05-04 12:42 | 47.10467 | 12.95841 | 33152 ft | 485 kts | 100° |
| 2026-05-04 12:42 | 47.09951 | 13.00725 | 33347 ft | 484 kts | 100° |
| 2026-05-04 12:42 | 47.09432 | 13.05611 | 33550 ft | 485 kts | 100° |
| 2026-05-04 12:43 | 47.08909 | 13.10501 | 33754 ft | 485 kts | 100° |
| 2026-05-04 12:43 | 47.08386 | 13.15379 | 33995 ft | 484 kts | 100° |
| 2026-05-04 12:43 | 47.07862 | 13.20251 | 34208 ft | 484 kts | 100° |
| 2026-05-04 12:43 | 47.07335 | 13.25126 | 34419 ft | 482 kts | 100° |
| 2026-05-04 12:44 | 47.06807 | 13.29983 | 34555 ft | 483 kts | 100° |
| 2026-05-04 12:44 | 47.06274 | 13.34859 | 34729 ft | 483 kts | 100° |
| 2026-05-04 12:44 | 47.05742 | 13.39719 | 34923 ft | 483 kts | 100° |
| 2026-05-04 12:45 | 47.04670 | 13.49466 | 35035 ft | 486 kts | 100° |
| 2026-05-04 12:45 | 47.03576 | 13.59319 | 35034 ft | 493 kts | 100° |
| 2026-05-04 12:46 | 47.02464 | 13.69272 | 35028 ft | 494 kts | 100° |
| 2026-05-04 12:46 | 47.01341 | 13.79229 | 35026 ft | 496 kts | 100° |
| 2026-05-04 12:47 | 47.00207 | 13.89186 | 35017 ft | 495 kts | 100° |
| 2026-05-04 12:47 | 46.99068 | 13.99139 | 35023 ft | 495 kts | 100° |
| 2026-05-04 12:48 | 46.97926 | 14.09031 | 35014 ft | 496 kts | 100° |
| 2026-05-04 12:48 | 46.96763 | 14.19006 | 35021 ft | 498 kts | 100° |
| 2026-05-04 12:49 | 46.95594 | 14.28986 | 35021 ft | 498 kts | 100° |
| 2026-05-04 12:49 | 46.94420 | 14.38962 | 35020 ft | 497 kts | 100° |
| 2026-05-04 12:50 | 46.93230 | 14.48937 | 35020 ft | 497 kts | 100° |
| 2026-05-04 12:50 | 46.92039 | 14.58884 | 35028 ft | 496 kts | 100° |
| 2026-05-04 12:51 | 46.90834 | 14.68819 | 35023 ft | 496 kts | 100° |
| 2026-05-04 12:51 | 46.89619 | 14.78739 | 35027 ft | 496 kts | 100° |
| 2026-05-04 12:52 | 46.88398 | 14.88665 | 35026 ft | 496 kts | 100° |
| 2026-05-04 12:52 | 46.87174 | 14.98561 | 35023 ft | 494 kts | 100° |
| 2026-05-04 12:53 | 46.85942 | 15.08437 | 35022 ft | 494 kts | 100° |
| 2026-05-04 12:53 | 46.84701 | 15.18305 | 35018 ft | 494 kts | 100° |
| 2026-05-04 12:54 | 46.83452 | 15.28168 | 35018 ft | 494 kts | 100° |
| 2026-05-04 12:54 | 46.82196 | 15.38038 | 35019 ft | 495 kts | 100° |
| 2026-05-04 12:55 | 46.80928 | 15.47915 | 35019 ft | 495 kts | 100° |
| 2026-05-04 12:55 | 46.79662 | 15.57698 | 35017 ft | 495 kts | 100° |
| 2026-05-04 12:56 | 46.78377 | 15.67563 | 35021 ft | 495 kts | 100° |
| 2026-05-04 12:56 | 46.77085 | 15.77428 | 35018 ft | 495 kts | 100° |
| 2026-05-04 12:57 | 46.75782 | 15.87287 | 35021 ft | 495 kts | 100° |
| 2026-05-04 12:57 | 46.74471 | 15.97145 | 35023 ft | 495 kts | 100° |
| 2026-05-04 12:58 | 46.73151 | 16.06999 | 35022 ft | 495 kts | 100° |
| 2026-05-04 12:58 | 46.71823 | 16.16848 | 35027 ft | 495 kts | 100° |
| 2026-05-04 12:59 | 46.70487 | 16.26691 | 35027 ft | 495 kts | 100° |
| 2026-05-04 12:59 | 46.69141 | 16.36535 | 35026 ft | 495 kts | 100° |
| 2026-05-04 13:00 | 46.67808 | 16.46379 | 35033 ft | 495 kts | 99° |
| 2026-05-04 13:00 | 46.66677 | 16.56242 | 35034 ft | 494 kts | 98° |
| 2026-05-04 13:01 | 46.65592 | 16.66115 | 35036 ft | 494 kts | 98° |
| 2026-05-04 13:01 | 46.64471 | 16.75977 | 35037 ft | 494 kts | 98° |
| 2026-05-04 13:02 | 46.63323 | 16.85819 | 35040 ft | 493 kts | 98° |
| 2026-05-04 13:02 | 46.62163 | 16.95634 | 35068 ft | 491 kts | 98° |
| 2026-05-04 13:03 | 46.61192 | 17.03772 | 35071 ft | 491 kts | 98° |
| 2026-05-04 13:03 | 46.60018 | 17.13563 | 35076 ft | 491 kts | 98° |
| 2026-05-04 13:04 | 46.58837 | 17.23350 | 35076 ft | 491 kts | 98° |
| 2026-05-04 13:04 | 46.57650 | 17.33117 | 35068 ft | 490 kts | 98° |
| 2026-05-04 13:05 | 46.56454 | 17.42879 | 35064 ft | 490 kts | 98° |
| 2026-05-04 13:05 | 46.55259 | 17.52567 | 35058 ft | 490 kts | 98° |
| 2026-05-04 13:06 | 46.54040 | 17.62375 | 35062 ft | 490 kts | 98° |
| 2026-05-04 13:06 | 46.52830 | 17.72046 | 35060 ft | 489 kts | 98° |
| 2026-05-04 13:07 | 46.51606 | 17.81758 | 35061 ft | 489 kts | 98° |
| 2026-05-04 13:07 | 46.50373 | 17.91466 | 35063 ft | 489 kts | 99° |
| 2026-05-04 13:08 | 46.49132 | 18.01171 | 35076 ft | 489 kts | 98° |
| 2026-05-04 13:08 | 46.47888 | 18.10862 | 35072 ft | 488 kts | 98° |
| 2026-05-04 13:09 | 46.46631 | 18.20544 | 35074 ft | 488 kts | 99° |
| 2026-05-04 13:09 | 46.45365 | 18.30222 | 35075 ft | 488 kts | 99° |
| 2026-05-04 13:10 | 46.44091 | 18.39896 | 35080 ft | 488 kts | 99° |
| 2026-05-04 13:10 | 46.42815 | 18.49553 | 35076 ft | 487 kts | 99° |
| 2026-05-04 13:11 | 46.41529 | 18.59192 | 35070 ft | 487 kts | 99° |
| 2026-05-04 13:11 | 46.40244 | 18.68761 | 35079 ft | 487 kts | 99° |
| 2026-05-04 13:12 | 46.38942 | 18.78395 | 35087 ft | 487 kts | 99° |
| 2026-05-04 13:12 | 46.37637 | 18.88021 | 35082 ft | 487 kts | 99° |
| 2026-05-04 13:13 | 46.36319 | 18.97632 | 35081 ft | 487 kts | 99° |
| 2026-05-04 13:13 | 46.34994 | 19.07237 | 35083 ft | 487 kts | 99° |
| 2026-05-04 13:14 | 46.33661 | 19.16838 | 35101 ft | 487 kts | 99° |
| 2026-05-04 13:14 | 46.32320 | 19.26438 | 35087 ft | 487 kts | 99° |
| 2026-05-04 13:15 | 46.30973 | 19.36023 | 35090 ft | 486 kts | 99° |
| 2026-05-04 13:15 | 46.29618 | 19.45609 | 35091 ft | 487 kts | 99° |
| 2026-05-04 13:16 | 46.28253 | 19.55201 | 35109 ft | 487 kts | 99° |
| 2026-05-04 13:16 | 46.26889 | 19.64719 | 35095 ft | 487 kts | 99° |
| 2026-05-04 13:17 | 46.25509 | 19.74295 | 35101 ft | 487 kts | 99° |
| 2026-05-04 13:17 | 46.24121 | 19.83864 | 35100 ft | 487 kts | 99° |
| 2026-05-04 13:18 | 46.22723 | 19.93435 | 35101 ft | 487 kts | 99° |
| 2026-05-04 13:18 | 46.21320 | 20.02991 | 35103 ft | 487 kts | 99° |
| 2026-05-04 13:19 | 46.19907 | 20.12554 | 35103 ft | 487 kts | 99° |
| 2026-05-04 13:19 | 46.18487 | 20.22104 | 35103 ft | 487 kts | 99° |
| 2026-05-04 13:20 | 46.17058 | 20.31652 | 35118 ft | 487 kts | 99° |
| 2026-05-04 13:20 | 46.15474 | 20.41141 | 35107 ft | 488 kts | 104° |
| 2026-05-04 13:21 | 46.13352 | 20.50447 | 35108 ft | 489 kts | 106° |
| 2026-05-04 13:21 | 46.11131 | 20.59702 | 35108 ft | 489 kts | 106° |
| 2026-05-04 13:22 | 46.08888 | 20.68958 | 35127 ft | 489 kts | 106° |
| 2026-05-04 13:22 | 46.06657 | 20.78184 | 35109 ft | 487 kts | 106° |
| 2026-05-04 13:23 | 46.04426 | 20.87388 | 35108 ft | 487 kts | 106° |
| 2026-05-04 13:23 | 46.02200 | 20.96520 | 35108 ft | 487 kts | 106° |
| 2026-05-04 13:24 | 45.99954 | 21.05704 | 35118 ft | 487 kts | 106° |
| 2026-05-04 13:24 | 45.97703 | 21.14872 | 35107 ft | 486 kts | 106° |
| 2026-05-04 13:25 | 45.94319 | 21.28592 | 35107 ft | 486 kts | 107° |
| 2026-05-04 13:25 | 45.92054 | 21.37728 | 35102 ft | 486 kts | 107° |
| 2026-05-04 13:26 | 45.89784 | 21.46850 | 35102 ft | 484 kts | 107° |
| 2026-05-04 13:26 | 45.87514 | 21.55931 | 35103 ft | 483 kts | 107° |
| 2026-05-04 13:27 | 45.85236 | 21.65009 | 35108 ft | 483 kts | 107° |
| 2026-05-04 13:27 | 45.82953 | 21.74074 | 35108 ft | 483 kts | 107° |
| 2026-05-04 13:28 | 45.80661 | 21.83132 | 35105 ft | 482 kts | 107° |
| 2026-05-04 13:28 | 45.78369 | 21.92159 | 35100 ft | 482 kts | 107° |
| 2026-05-04 13:29 | 45.76068 | 22.01185 | 35103 ft | 482 kts | 107° |
| 2026-05-04 13:29 | 45.73758 | 22.10210 | 35117 ft | 482 kts | 107° |
| 2026-05-04 13:30 | 45.71460 | 22.19155 | 35100 ft | 481 kts | 107° |
| 2026-05-04 13:30 | 45.69146 | 22.28131 | 35099 ft | 481 kts | 107° |
| 2026-05-04 13:31 | 45.66823 | 22.37102 | 35094 ft | 481 kts | 108° |
| 2026-05-04 13:31 | 45.64492 | 22.46072 | 35111 ft | 482 kts | 108° |
| 2026-05-04 13:32 | 45.62164 | 22.55027 | 35096 ft | 480 kts | 108° |
| 2026-05-04 13:32 | 45.59826 | 22.63953 | 35093 ft | 480 kts | 108° |
| 2026-05-04 13:33 | 45.57478 | 22.72863 | 35097 ft | 480 kts | 108° |
| 2026-05-04 13:33 | 45.55124 | 22.81778 | 35106 ft | 480 kts | 108° |
| 2026-05-04 13:34 | 45.52768 | 22.90670 | 35084 ft | 479 kts | 108° |
| 2026-05-04 13:34 | 45.50407 | 22.99549 | 35087 ft | 479 kts | 108° |
| 2026-05-04 13:35 | 45.46856 | 23.12847 | 35080 ft | 478 kts | 108° |
| 2026-05-04 13:36 | 45.44482 | 23.21689 | 35080 ft | 477 kts | 108° |
| 2026-05-04 13:36 | 45.42105 | 23.30512 | 35072 ft | 477 kts | 109° |
| 2026-05-04 13:37 | 45.39726 | 23.39321 | 35073 ft | 477 kts | 108° |
| 2026-05-04 13:37 | 45.37338 | 23.48124 | 35064 ft | 477 kts | 108° |
| 2026-05-04 13:38 | 45.34941 | 23.56916 | 35064 ft | 477 kts | 109° |
| 2026-05-04 13:38 | 45.32555 | 23.65651 | 35060 ft | 477 kts | 108° |
| 2026-05-04 13:39 | 45.30144 | 23.74439 | 35070 ft | 477 kts | 109° |
| 2026-05-04 13:39 | 45.27685 | 23.83199 | 35068 ft | 478 kts | 110° |
| 2026-05-04 13:40 | 45.25214 | 23.91921 | 35056 ft | 475 kts | 110° |
| 2026-05-04 13:40 | 45.22747 | 24.00609 | 35051 ft | 475 kts | 110° |
| 2026-05-04 13:41 | 45.20276 | 24.09290 | 35042 ft | 475 kts | 110° |
| 2026-05-04 13:41 | 45.17804 | 24.17965 | 35046 ft | 475 kts | 111° |
| 2026-05-04 13:42 | 45.14067 | 24.31008 | 35032 ft | 476 kts | 112° |
| 2026-05-04 13:42 | 45.11566 | 24.39691 | 35026 ft | 476 kts | 112° |
| 2026-05-04 13:43 | 45.09060 | 24.48372 | 35024 ft | 476 kts | 112° |
| 2026-05-04 13:43 | 45.06541 | 24.57069 | 35025 ft | 480 kts | 112° |
| 2026-05-04 13:44 | 45.03999 | 24.65815 | 35017 ft | 481 kts | 112° |
| 2026-05-04 13:44 | 45.01446 | 24.74568 | 35017 ft | 481 kts | 112° |
| 2026-05-04 13:45 | 44.98886 | 24.83315 | 35024 ft | 482 kts | 112° |
| 2026-05-04 13:45 | 44.96313 | 24.92072 | 35021 ft | 483 kts | 112° |
| 2026-05-04 13:46 | 44.93730 | 25.00836 | 35022 ft | 484 kts | 112° |
| 2026-05-04 13:46 | 44.91140 | 25.09590 | 35020 ft | 484 kts | 112° |
| 2026-05-04 13:47 | 44.88561 | 25.18277 | 35023 ft | 482 kts | 112° |
| 2026-05-04 13:47 | 44.85957 | 25.27019 | 35020 ft | 479 kts | 112° |
| 2026-05-04 13:48 | 44.83374 | 25.35662 | 35021 ft | 479 kts | 112° |
| 2026-05-04 13:48 | 44.80797 | 25.44254 | 35020 ft | 479 kts | 112° |
| 2026-05-04 13:49 | 44.78202 | 25.52878 | 35022 ft | 478 kts | 112° |
| 2026-05-04 13:49 | 44.75609 | 25.61465 | 35023 ft | 476 kts | 113° |
| 2026-05-04 13:50 | 44.73016 | 25.70025 | 35029 ft | 475 kts | 113° |
| 2026-05-04 13:50 | 44.70415 | 25.78580 | 35035 ft | 476 kts | 112° |
| 2026-05-04 13:51 | 44.67812 | 25.87115 | 35040 ft | 474 kts | 113° |
| 2026-05-04 13:51 | 44.65213 | 25.95607 | 35045 ft | 472 kts | 113° |
| 2026-05-04 13:52 | 44.61307 | 26.08319 | 35047 ft | 472 kts | 113° |
| 2026-05-04 13:53 | 44.59139 | 26.15348 | 35051 ft | 472 kts | 113° |
| 2026-05-04 13:53 | 44.56529 | 26.23791 | 35045 ft | 471 kts | 113° |
| 2026-05-04 13:54 | 44.52173 | 26.37759 | 35036 ft | 470 kts | 114° |
| 2026-05-04 13:55 | 44.48546 | 26.48917 | 35037 ft | 470 kts | 114° |
| 2026-05-04 13:55 | 44.44486 | 26.61373 | 35036 ft | 469 kts | 114° |
| 2026-05-04 13:56 | 44.41776 | 26.69665 | 35033 ft | 468 kts | 114° |
| 2026-05-04 13:57 | 44.37706 | 26.82087 | 35031 ft | 468 kts | 114° |
| 2026-05-04 13:58 | 44.32279 | 26.98572 | 35034 ft | 468 kts | 115° |
| 2026-05-04 13:58 | 44.28178 | 27.10961 | 35030 ft | 468 kts | 114° |
| 2026-05-04 13:59 | 44.25448 | 27.19183 | 35031 ft | 467 kts | 114° |
| 2026-05-04 14:00 | 44.21343 | 27.31485 | 35030 ft | 467 kts | 114° |
| 2026-05-04 14:00 | 44.17232 | 27.43782 | 35033 ft | 466 kts | 114° |
| 2026-05-04 14:01 | 44.14487 | 27.51927 | 35030 ft | 464 kts | 114° |
| 2026-05-04 14:02 | 44.10363 | 27.64123 | 35030 ft | 464 kts | 114° |
| 2026-05-04 14:02 | 44.07610 | 27.72246 | 35029 ft | 465 kts | 114° |
| 2026-05-04 14:03 | 44.04846 | 27.80382 | 35024 ft | 465 kts | 114° |
| 2026-05-04 14:03 | 44.02091 | 27.88462 | 35055 ft | 466 kts | 114° |
| 2026-05-04 14:03 | 44.00700 | 27.92530 | 35268 ft | 465 kts | 114° |
| 2026-05-04 14:04 | 43.97921 | 28.00638 | 35580 ft | 465 kts | 114° |
| 2026-05-04 14:04 | 43.95128 | 28.08776 | 35827 ft | 468 kts | 114° |
| 2026-05-04 14:05 | 43.92323 | 28.16921 | 36112 ft | 468 kts | 114° |
| 2026-05-04 14:05 | 43.90919 | 28.20978 | 36310 ft | 466 kts | 114° |
| 2026-05-04 14:05 | 43.89518 | 28.25026 | 36484 ft | 466 kts | 114° |
| 2026-05-04 14:06 | 43.88113 | 28.29079 | 36588 ft | 467 kts | 114° |
| 2026-05-04 14:06 | 43.86708 | 28.33126 | 36761 ft | 466 kts | 114° |
| 2026-05-04 14:06 | 43.85304 | 28.37169 | 36959 ft | 465 kts | 114° |
| 2026-05-04 14:07 | 43.82489 | 28.45254 | 37026 ft | 467 kts | 114° |
| 2026-05-04 14:07 | 43.79663 | 28.53343 | 37024 ft | 465 kts | 114° |
| 2026-05-04 14:08 | 43.76844 | 28.61390 | 37022 ft | 465 kts | 114° |
| 2026-05-04 14:08 | 43.74020 | 28.69428 | 37028 ft | 465 kts | 114° |
| 2026-05-04 14:09 | 43.69626 | 28.81308 | 37031 ft | 467 kts | 122° |
| 2026-05-04 14:10 | 43.64039 | 28.92338 | 37016 ft | 468 kts | 123° |
| 2026-05-04 14:10 | 43.60207 | 28.99596 | 37011 ft | 468 kts | 123° |
| 2026-05-04 14:11 | 43.56375 | 29.06847 | 37003 ft | 468 kts | 123° |
| 2026-05-04 14:11 | 43.50638 | 29.17721 | 37014 ft | 468 kts | 123° |
| 2026-05-04 14:12 | 43.46807 | 29.24969 | 36996 ft | 468 kts | 123° |
| 2026-05-04 14:13 | 43.41049 | 29.35828 | 36989 ft | 469 kts | 123° |
| 2026-05-04 14:13 | 43.37202 | 29.43059 | 37001 ft | 468 kts | 123° |
| 2026-05-04 14:14 | 43.33355 | 29.50273 | 36984 ft | 468 kts | 123° |
| 2026-05-04 14:14 | 43.27571 | 29.61087 | 36986 ft | 468 kts | 123° |
| 2026-05-04 14:15 | 43.19873 | 29.75417 | 36971 ft | 468 kts | 123° |
| 2026-05-04 14:16 | 43.14064 | 29.86184 | 36973 ft | 468 kts | 123° |
| 2026-05-04 14:17 | 43.08250 | 29.96923 | 36967 ft | 468 kts | 123° |
| 2026-05-04 14:18 | 43.02416 | 30.07660 | 36960 ft | 469 kts | 123° |
| 2026-05-04 14:19 | 42.94607 | 30.21969 | 36958 ft | 470 kts | 123° |
| 2026-05-04 14:19 | 42.90697 | 30.29107 | 36953 ft | 470 kts | 123° |
| 2026-05-04 14:20 | 42.86778 | 30.36245 | 36926 ft | 470 kts | 123° |
| 2026-05-04 14:20 | 42.82882 | 30.43323 | 36939 ft | 470 kts | 123° |
| 2026-05-04 14:21 | 42.76994 | 30.54011 | 36927 ft | 470 kts | 122° |
| 2026-05-04 14:21 | 42.74021 | 30.61807 | 36918 ft | 461 kts | 104° |
| 2026-05-04 14:22 | 42.72734 | 30.70287 | 36913 ft | 457 kts | 96° |
| 2026-05-04 14:22 | 42.71874 | 30.78800 | 36913 ft | 458 kts | 95° |
| 2026-05-04 14:23 | 42.70625 | 30.91710 | 36906 ft | 459 kts | 95° |
| 2026-05-04 14:24 | 42.69747 | 31.00313 | 36896 ft | 459 kts | 95° |
| 2026-05-04 14:24 | 42.68851 | 31.08913 | 36898 ft | 460 kts | 95° |
| 2026-05-04 14:25 | 42.67952 | 31.17462 | 36887 ft | 461 kts | 95° |
| 2026-05-04 14:25 | 42.66582 | 31.30397 | 36878 ft | 461 kts | 95° |
| 2026-05-04 14:26 | 42.65660 | 31.39022 | 36879 ft | 461 kts | 96° |
| 2026-05-04 14:26 | 42.64740 | 31.47559 | 36883 ft | 460 kts | 96° |
| 2026-05-04 14:27 | 42.63808 | 31.56151 | 36867 ft | 460 kts | 96° |
| 2026-05-04 14:27 | 42.62870 | 31.64743 | 36857 ft | 460 kts | 96° |
| 2026-05-04 14:28 | 42.61925 | 31.73335 | 36859 ft | 460 kts | 96° |
| 2026-05-04 14:28 | 42.60975 | 31.81916 | 36857 ft | 460 kts | 96° |
| 2026-05-04 14:29 | 42.59074 | 31.98902 | 36848 ft | 459 kts | 96° |
| 2026-05-04 14:30 | 42.58120 | 32.07465 | 36851 ft | 459 kts | 96° |
| 2026-05-04 14:31 | 42.56672 | 32.20238 | 36864 ft | 459 kts | 96° |
| 2026-05-04 14:32 | 42.54692 | 32.37320 | 36848 ft | 458 kts | 96° |
| 2026-05-04 14:32 | 42.53697 | 32.45849 | 36850 ft | 457 kts | 97° |
| 2026-05-04 14:33 | 42.52699 | 32.54357 | 36850 ft | 457 kts | 97° |
| 2026-05-04 14:33 | 42.51701 | 32.62809 | 36851 ft | 457 kts | 97° |
| 2026-05-04 14:34 | 42.50689 | 32.71324 | 36851 ft | 458 kts | 97° |
| 2026-05-04 14:34 | 42.49670 | 32.79837 | 36851 ft | 458 kts | 97° |
| 2026-05-04 14:35 | 42.48651 | 32.88297 | 36854 ft | 458 kts | 97° |
| 2026-05-04 14:35 | 42.47618 | 32.96811 | 36853 ft | 458 kts | 97° |
| 2026-05-04 14:36 | 42.46581 | 33.05309 | 36856 ft | 458 kts | 97° |
| 2026-05-04 14:36 | 42.45537 | 33.13816 | 36858 ft | 458 kts | 97° |
| 2026-05-04 14:37 | 42.44488 | 33.22315 | 36856 ft | 458 kts | 97° |
| 2026-05-04 14:37 | 42.43435 | 33.30759 | 36856 ft | 458 kts | 97° |
| 2026-05-04 14:38 | 42.42367 | 33.39266 | 36856 ft | 459 kts | 97° |
| 2026-05-04 14:38 | 42.41298 | 33.47780 | 36851 ft | 458 kts | 98° |
| 2026-05-04 14:39 | 42.40220 | 33.56272 | 36850 ft | 458 kts | 98° |
| 2026-05-04 14:39 | 42.39143 | 33.64701 | 36857 ft | 458 kts | 98° |
| 2026-05-04 14:40 | 42.37508 | 33.77424 | 36851 ft | 458 kts | 98° |
| 2026-05-04 14:40 | 42.36408 | 33.85915 | 36852 ft | 458 kts | 98° |
| 2026-05-04 14:41 | 42.35316 | 33.94339 | 36853 ft | 458 kts | 98° |
| 2026-05-04 14:42 | 42.33091 | 34.11315 | 36859 ft | 459 kts | 98° |
| 2026-05-04 14:42 | 42.31968 | 34.19809 | 36859 ft | 459 kts | 99° |
| 2026-05-04 14:43 | 42.30847 | 34.28244 | 36860 ft | 459 kts | 99° |
| 2026-05-04 14:43 | 42.29712 | 34.36732 | 36867 ft | 459 kts | 99° |
| 2026-05-04 14:44 | 42.28570 | 34.45218 | 36862 ft | 459 kts | 99° |
| 2026-05-04 14:44 | 42.27423 | 34.53683 | 36862 ft | 458 kts | 99° |
| 2026-05-04 14:45 | 42.26273 | 34.62128 | 36862 ft | 457 kts | 99° |
| 2026-05-04 14:45 | 42.25123 | 34.70517 | 36876 ft | 457 kts | 99° |
| 2026-05-04 14:46 | 42.23959 | 34.78971 | 36868 ft | 459 kts | 99° |
| 2026-05-04 14:46 | 42.22788 | 34.87448 | 36868 ft | 460 kts | 99° |
| 2026-05-04 14:47 | 42.21609 | 34.95862 | 36868 ft | 460 kts | 99° |
| 2026-05-04 14:47 | 42.20416 | 35.04334 | 36867 ft | 460 kts | 99° |
| 2026-05-04 14:48 | 42.19215 | 35.12824 | 36870 ft | 462 kts | 99° |
| 2026-05-04 14:48 | 42.18003 | 35.21353 | 36868 ft | 463 kts | 99° |
| 2026-05-04 14:49 | 42.16792 | 35.29828 | 36867 ft | 463 kts | 100° |
| 2026-05-04 14:49 | 42.15567 | 35.38352 | 36867 ft | 463 kts | 100° |
| 2026-05-04 14:50 | 42.14338 | 35.46894 | 36858 ft | 466 kts | 100° |
| 2026-05-04 14:50 | 42.13094 | 35.55474 | 36870 ft | 467 kts | 100° |
| 2026-05-04 14:51 | 42.11850 | 35.63998 | 36870 ft | 467 kts | 101° |
| 2026-05-04 14:51 | 42.10593 | 35.72578 | 36871 ft | 467 kts | 101° |
| 2026-05-04 14:52 | 42.09330 | 35.81159 | 36871 ft | 468 kts | 101° |
| 2026-05-04 14:52 | 42.08057 | 35.89776 | 36871 ft | 470 kts | 101° |
| 2026-05-04 14:53 | 42.06779 | 35.98345 | 36868 ft | 470 kts | 101° |
| 2026-05-04 14:53 | 42.05486 | 36.06968 | 36867 ft | 470 kts | 101° |
| 2026-05-04 14:54 | 42.04205 | 36.15484 | 36867 ft | 471 kts | 102° |
| 2026-05-04 14:54 | 42.02893 | 36.24135 | 36867 ft | 472 kts | 102° |
| 2026-05-04 14:55 | 42.01576 | 36.32794 | 36868 ft | 473 kts | 102° |
| 2026-05-04 14:55 | 42.00253 | 36.41449 | 36864 ft | 473 kts | 102° |
| 2026-05-04 14:56 | 41.98923 | 36.50098 | 36861 ft | 472 kts | 102° |
| 2026-05-04 14:56 | 41.97598 | 36.58669 | 36861 ft | 471 kts | 102° |
| 2026-05-04 14:57 | 41.96260 | 36.67278 | 36862 ft | 471 kts | 102° |
| 2026-05-04 14:57 | 41.94916 | 36.75885 | 36862 ft | 471 kts | 102° |
| 2026-05-04 14:58 | 41.93563 | 36.84490 | 36859 ft | 471 kts | 103° |
| 2026-05-04 14:58 | 41.92216 | 36.93056 | 36859 ft | 472 kts | 103° |
| 2026-05-04 14:59 | 41.90856 | 37.01685 | 36856 ft | 473 kts | 101° |
| 2026-05-04 15:00 | 41.90208 | 37.14898 | 36858 ft | 474 kts | 92° |
| 2026-05-04 15:00 | 41.90092 | 37.23747 | 36860 ft | 476 kts | 92° |
| 2026-05-04 15:01 | 41.89917 | 37.37027 | 36854 ft | 476 kts | 92° |
| 2026-05-04 15:01 | 41.89771 | 37.45905 | 36859 ft | 476 kts | 93° |
| 2026-05-04 15:02 | 41.89616 | 37.54785 | 36854 ft | 476 kts | 93° |
| 2026-05-04 15:02 | 41.89455 | 37.63606 | 36858 ft | 477 kts | 93° |
| 2026-05-04 15:03 | 41.89290 | 37.72513 | 36860 ft | 478 kts | 93° |
| 2026-05-04 15:03 | 41.89115 | 37.81432 | 36855 ft | 478 kts | 93° |
| 2026-05-04 15:04 | 41.88931 | 37.90352 | 36850 ft | 478 kts | 93° |
| 2026-05-04 15:04 | 41.88744 | 37.99192 | 36856 ft | 477 kts | 93° |
| 2026-05-04 15:05 | 41.88551 | 38.08085 | 36857 ft | 478 kts | 94° |
| 2026-05-04 15:05 | 41.88347 | 38.17003 | 36856 ft | 478 kts | 94° |
| 2026-05-04 15:06 | 41.88137 | 38.25926 | 36856 ft | 478 kts | 94° |
| 2026-05-04 15:07 | 41.87811 | 38.39253 | 36853 ft | 478 kts | 94° |
| 2026-05-04 15:07 | 41.87587 | 38.48178 | 36853 ft | 480 kts | 94° |
| 2026-05-04 15:08 | 41.87353 | 38.57133 | 36853 ft | 481 kts | 95° |
| 2026-05-04 15:08 | 41.87109 | 38.66101 | 36851 ft | 481 kts | 95° |
| 2026-05-04 15:09 | 41.86861 | 38.75010 | 36851 ft | 481 kts | 95° |
| 2026-05-04 15:09 | 41.86605 | 38.83979 | 36848 ft | 481 kts | 95° |
| 2026-05-04 15:10 | 41.86208 | 38.97423 | 36851 ft | 481 kts | 95° |
| 2026-05-04 15:11 | 41.85798 | 39.10820 | 36855 ft | 480 kts | 95° |
| 2026-05-04 15:11 | 41.85515 | 39.19760 | 36856 ft | 479 kts | 95° |
| 2026-05-04 15:12 | 41.85227 | 39.28635 | 36850 ft | 479 kts | 96° |
| 2026-05-04 15:12 | 41.84930 | 39.37570 | 36857 ft | 480 kts | 96° |
| 2026-05-04 15:13 | 41.84626 | 39.46519 | 36857 ft | 480 kts | 96° |
| 2026-05-04 15:13 | 41.84317 | 39.55457 | 36853 ft | 480 kts | 96° |
| 2026-05-04 15:14 | 41.84003 | 39.64345 | 36856 ft | 480 kts | 96° |
| 2026-05-04 15:14 | 41.83679 | 39.73274 | 36854 ft | 479 kts | 96° |
| 2026-05-04 15:15 | 41.83348 | 39.82206 | 36857 ft | 480 kts | 96° |
| 2026-05-04 15:15 | 41.83011 | 39.91139 | 36856 ft | 480 kts | 96° |
| 2026-05-04 15:16 | 41.82495 | 40.04479 | 36848 ft | 480 kts | 96° |
| 2026-05-04 15:17 | 41.81964 | 40.17888 | 36848 ft | 481 kts | 96° |
| 2026-05-04 15:17 | 41.81408 | 40.31322 | 36851 ft | 481 kts | 97° |
| 2026-05-04 15:18 | 41.81031 | 40.40212 | 36838 ft | 481 kts | 97° |
| 2026-05-04 15:19 | 41.80451 | 40.53639 | 36838 ft | 481 kts | 97° |
| 2026-05-04 15:19 | 41.79857 | 40.67062 | 36849 ft | 481 kts | 97° |
| 2026-05-04 15:20 | 41.79438 | 40.75941 | 36857 ft | 481 kts | 97° |
| 2026-05-04 15:20 | 41.78990 | 40.84876 | 36850 ft | 480 kts | 97° |
| 2026-05-04 15:21 | 41.78540 | 40.93798 | 36844 ft | 479 kts | 98° |
| 2026-05-04 15:22 | 41.77859 | 41.07157 | 36849 ft | 479 kts | 98° |
| 2026-05-04 15:22 | 41.77167 | 41.20451 | 36868 ft | 479 kts | 98° |
| 2026-05-04 15:23 | 41.76695 | 41.29354 | 36870 ft | 479 kts | 98° |
| 2026-05-04 15:23 | 41.76217 | 41.38250 | 36863 ft | 479 kts | 98° |
| 2026-05-04 15:24 | 41.75242 | 41.55983 | 36882 ft | 478 kts | 98° |
| 2026-05-04 15:25 | 41.74743 | 41.64867 | 36881 ft | 478 kts | 99° |
| 2026-05-04 15:26 | 41.73983 | 41.78186 | 36864 ft | 478 kts | 99° |
| 2026-05-04 15:26 | 41.73203 | 41.91545 | 36877 ft | 481 kts | 99° |
| 2026-05-04 15:27 | 41.72409 | 42.04926 | 36885 ft | 481 kts | 99° |
| 2026-05-04 15:28 | 41.71598 | 42.18318 | 36875 ft | 481 kts | 99° |
| 2026-05-04 15:29 | 41.70764 | 42.31742 | 36874 ft | 484 kts | 99° |
| 2026-05-04 15:30 | 41.68763 | 42.63148 | 36836 ft | 484 kts | 99° |
| 2026-05-04 15:31 | 41.67975 | 42.75122 | 36849 ft | 486 kts | 99° |
| 2026-05-04 15:32 | 41.65956 | 42.97490 | 36823 ft | 482 kts | 105° |
| 2026-05-04 15:34 | 41.62802 | 43.19520 | 36823 ft | 484 kts | 105° |
| 2026-05-04 15:34 | 41.61022 | 43.32760 | 36820 ft | 486 kts | 105° |
| 2026-05-04 15:35 | 41.59216 | 43.46110 | 36829 ft | 488 kts | 105° |
| 2026-05-04 15:36 | 41.57383 | 43.59481 | 36830 ft | 488 kts | 106° |
| 2026-05-04 15:36 | 41.56153 | 43.68393 | 36831 ft | 488 kts | 106° |
| 2026-05-04 15:37 | 41.54917 | 43.77292 | 36831 ft | 488 kts | 106° |
| 2026-05-04 15:37 | 41.53671 | 43.86211 | 36852 ft | 489 kts | 106° |
| 2026-05-04 15:38 | 41.52417 | 43.95132 | 36840 ft | 489 kts | 106° |
| 2026-05-04 15:38 | 41.51153 | 44.04068 | 36854 ft | 490 kts | 106° |
| 2026-05-04 15:39 | 41.49882 | 44.13004 | 36854 ft | 491 kts | 107° |
| 2026-05-04 15:40 | 41.47959 | 44.26433 | 36865 ft | 492 kts | 107° |
| 2026-05-04 15:40 | 41.46667 | 44.35389 | 36864 ft | 492 kts | 107° |
| 2026-05-04 15:41 | 41.45367 | 44.44343 | 36866 ft | 492 kts | 107° |
| 2026-05-04 15:41 | 41.44070 | 44.53234 | 36864 ft | 491 kts | 107° |
| 2026-05-04 15:42 | 41.42758 | 44.62172 | 36867 ft | 491 kts | 107° |
| 2026-05-04 15:42 | 41.41440 | 44.71101 | 36865 ft | 491 kts | 107° |
| 2026-05-04 15:43 | 41.40114 | 44.80032 | 36856 ft | 491 kts | 107° |
| 2026-05-04 15:43 | 41.38782 | 44.88958 | 36852 ft | 492 kts | 107° |
| 2026-05-04 15:44 | 41.37437 | 44.97912 | 36855 ft | 494 kts | 107° |
| 2026-05-04 15:44 | 41.36058 | 45.06861 | 36846 ft | 492 kts | 110° |
| 2026-05-04 15:45 | 41.34049 | 45.15503 | 36850 ft | 488 kts | 114° |
| 2026-05-04 15:45 | 41.31871 | 45.24047 | 36849 ft | 488 kts | 115° |
| 2026-05-04 15:46 | 41.29652 | 45.32594 | 36850 ft | 489 kts | 115° |
| 2026-05-04 15:46 | 41.27435 | 45.41140 | 36853 ft | 489 kts | 115° |
| 2026-05-04 15:47 | 41.25221 | 45.49680 | 36853 ft | 489 kts | 115° |
| 2026-05-04 15:47 | 41.23000 | 45.58220 | 36846 ft | 490 kts | 115° |
| 2026-05-04 15:48 | 41.20771 | 45.66770 | 36849 ft | 490 kts | 115° |
| 2026-05-04 15:48 | 41.17404 | 45.79580 | 36852 ft | 490 kts | 115° |
| 2026-05-04 15:49 | 41.15146 | 45.88108 | 36851 ft | 490 kts | 115° |
| 2026-05-04 15:49 | 41.12883 | 45.96635 | 36854 ft | 490 kts | 115° |
| 2026-05-04 15:50 | 41.10617 | 46.05152 | 36856 ft | 490 kts | 115° |
| 2026-05-04 15:50 | 41.08344 | 46.13664 | 36836 ft | 490 kts | 115° |
| 2026-05-04 15:51 | 41.06078 | 46.22121 | 36868 ft | 490 kts | 115° |
| 2026-05-04 15:51 | 41.03793 | 46.30625 | 36870 ft | 490 kts | 115° |
| 2026-05-04 15:52 | 41.01519 | 46.39141 | 36872 ft | 490 kts | 115° |
| 2026-05-04 15:52 | 40.99246 | 46.47642 | 36869 ft | 490 kts | 115° |
| 2026-05-04 15:53 | 40.96958 | 46.56161 | 36872 ft | 492 kts | 115° |
| 2026-05-04 15:53 | 40.94663 | 46.64678 | 36868 ft | 492 kts | 115° |
| 2026-05-04 15:54 | 40.92361 | 46.73191 | 36868 ft | 492 kts | 115° |
| 2026-05-04 15:54 | 40.90850 | 46.82097 | 36850 ft | 506 kts | 98° |
| 2026-05-04 15:55 | 40.90945 | 46.86778 | 36859 ft | 514 kts | 86° |
| 2026-05-04 15:55 | 40.91577 | 46.91439 | 36858 ft | 517 kts | 82° |
| 2026-05-04 15:55 | 40.93246 | 47.00716 | 36867 ft | 519 kts | 79° |
| 2026-05-04 15:56 | 40.95033 | 47.09979 | 36853 ft | 520 kts | 79° |
| 2026-05-04 15:56 | 40.96784 | 47.19263 | 36858 ft | 520 kts | 80° |
| 2026-05-04 15:57 | 40.98492 | 47.28554 | 36873 ft | 519 kts | 80° |
| 2026-05-04 15:57 | 41.00181 | 47.37852 | 36867 ft | 520 kts | 80° |
| 2026-05-04 15:58 | 41.01865 | 47.47170 | 36859 ft | 522 kts | 80° |
| 2026-05-04 15:58 | 41.03550 | 47.56530 | 36856 ft | 522 kts | 80° |
| 2026-05-04 15:59 | 41.05229 | 47.65892 | 36852 ft | 522 kts | 80° |
| 2026-05-04 15:59 | 41.06888 | 47.75191 | 36849 ft | 521 kts | 80° |
| 2026-05-04 16:00 | 41.08558 | 47.84600 | 36860 ft | 521 kts | 80° |
| 2026-05-04 16:00 | 41.10262 | 47.93884 | 36859 ft | 523 kts | 75° |
| 2026-05-04 16:01 | 41.13478 | 48.02542 | 36860 ft | 527 kts | 58° |
| 2026-05-04 16:01 | 41.17695 | 48.10495 | 36860 ft | 527 kts | 55° |
| 2026-05-04 16:02 | 41.22060 | 48.18324 | 36880 ft | 528 kts | 54° |
| 2026-05-04 16:03 | 41.28597 | 48.30121 | 36897 ft | 531 kts | 55° |
| 2026-05-04 16:03 | 41.32949 | 48.38070 | 36901 ft | 532 kts | 55° |
| 2026-05-04 16:04 | 41.37294 | 48.46040 | 36902 ft | 532 kts | 55° |
| 2026-05-04 16:04 | 41.43802 | 48.57994 | 36918 ft | 531 kts | 54° |
| 2026-05-04 16:05 | 41.48213 | 48.65900 | 36921 ft | 531 kts | 54° |
| 2026-05-04 16:06 | 41.54811 | 48.77774 | 36925 ft | 531 kts | 56° |
| 2026-05-04 16:07 | 41.62990 | 48.94206 | 36922 ft | 531 kts | 57° |
| 2026-05-04 16:08 | 41.71180 | 49.10651 | 36914 ft | 531 kts | 57° |
| 2026-05-04 16:09 | 41.81427 | 49.31218 | 36912 ft | 531 kts | 57° |
| 2026-05-04 16:10 | 41.90128 | 49.47232 | 36919 ft | 530 kts | 53° |
| 2026-05-04 16:11 | 41.98883 | 49.63185 | 36902 ft | 530 kts | 54° |
| 2026-05-04 16:12 | 42.11828 | 49.87183 | 36914 ft | 527 kts | 54° |
| 2026-05-04 16:13 | 42.20396 | 50.03163 | 36913 ft | 525 kts | 54° |
| 2026-05-04 16:14 | 42.28923 | 50.19151 | 36903 ft | 524 kts | 54° |
| 2026-05-04 16:16 | 42.38816 | 50.37807 | 36905 ft | 524 kts | 54° |
| 2026-05-04 16:17 | 42.49620 | 50.57616 | 36899 ft | 523 kts | 51° |
| 2026-05-04 16:18 | 42.58594 | 50.73121 | 36906 ft | 522 kts | 51° |
| 2026-05-04 16:19 | 42.69676 | 50.92658 | 36903 ft | 522 kts | 52° |
| 2026-05-04 16:20 | 42.80716 | 51.12260 | 36900 ft | 521 kts | 52° |
| 2026-05-04 16:22 | 42.91713 | 51.31910 | 36882 ft | 521 kts | 52° |
| 2026-05-04 16:23 | 43.04859 | 51.55574 | 36884 ft | 520 kts | 53° |
| 2026-05-04 16:25 | 43.17868 | 51.79179 | 36889 ft | 519 kts | 53° |
| 2026-05-04 16:26 | 43.33017 | 52.06905 | 36878 ft | 519 kts | 53° |
| 2026-05-04 16:28 | 43.43804 | 52.26808 | 36863 ft | 519 kts | 53° |
| 2026-05-04 16:29 | 43.58818 | 52.54738 | 36863 ft | 517 kts | 54° |
| 2026-05-04 16:31 | 43.69453 | 52.74686 | 36862 ft | 516 kts | 54° |
| 2026-05-04 16:32 | 43.82072 | 52.98643 | 36852 ft | 513 kts | 54° |
| 2026-05-04 16:33 | 43.90436 | 53.14616 | 36848 ft | 511 kts | 54° |
| 2026-05-04 16:34 | 43.96682 | 53.26609 | 36848 ft | 511 kts | 54° |
| 2026-05-04 16:35 | 44.09115 | 53.50630 | 36848 ft | 510 kts | 54° |
| 2026-05-04 16:36 | 44.15281 | 53.62615 | 36851 ft | 509 kts | 54° |
| 2026-05-04 16:37 | 44.21454 | 53.74664 | 36851 ft | 509 kts | 55° |
| 2026-05-04 16:38 | 44.29662 | 53.90765 | 36850 ft | 509 kts | 55° |
| 2026-05-04 16:39 | 44.39897 | 54.10964 | 36851 ft | 509 kts | 55° |
| 2026-05-04 16:40 | 44.48062 | 54.27181 | 36866 ft | 510 kts | 56° |
| 2026-05-04 16:41 | 44.58237 | 54.47519 | 36851 ft | 509 kts | 56° |
| 2026-05-04 16:43 | 44.69035 | 54.67144 | 36848 ft | 509 kts | 44° |
| 2026-05-04 16:43 | 44.76845 | 54.77262 | 36848 ft | 509 kts | 42° |
| 2026-05-04 16:45 | 44.92651 | 54.97514 | 36854 ft | 513 kts | 42° |
| 2026-05-04 16:46 | 45.05717 | 55.14564 | 36858 ft | 512 kts | 47° |
| 2026-05-04 16:47 | 45.09714 | 55.22804 | 36858 ft | 509 kts | 67° |
| 2026-05-04 16:47 | 45.12452 | 55.31961 | 36864 ft | 509 kts | 70° |
| 2026-05-04 16:48 | 45.17507 | 55.50706 | 36869 ft | 509 kts | 70° |
| 2026-05-04 16:49 | 45.22570 | 55.69389 | 36872 ft | 509 kts | 70° |
| 2026-05-04 16:50 | 45.27630 | 55.88128 | 36870 ft | 508 kts | 70° |
| 2026-05-04 16:51 | 45.31400 | 56.02192 | 36868 ft | 508 kts | 70° |
| 2026-05-04 16:52 | 45.36383 | 56.20911 | 36870 ft | 508 kts | 70° |
| 2026-05-04 16:53 | 45.40113 | 56.35022 | 36872 ft | 508 kts | 70° |
| 2026-05-04 16:54 | 45.45046 | 56.53816 | 36875 ft | 509 kts | 70° |
| 2026-05-04 16:55 | 45.52402 | 56.82121 | 36889 ft | 509 kts | 70° |
| 2026-05-04 16:56 | 45.58489 | 57.05811 | 36889 ft | 509 kts | 70° |
| 2026-05-04 16:57 | 45.62107 | 57.20004 | 36897 ft | 509 kts | 70° |
| 2026-05-04 16:58 | 45.66924 | 57.39039 | 36913 ft | 509 kts | 70° |
| 2026-05-04 17:00 | 45.74127 | 57.67796 | 36915 ft | 514 kts | 70° |
| 2026-05-04 17:01 | 45.80099 | 57.91928 | 36922 ft | 514 kts | 70° |
| 2026-05-04 17:02 | 45.84827 | 58.11217 | 36929 ft | 514 kts | 70° |
| 2026-05-04 17:03 | 45.88367 | 58.25766 | 36930 ft | 515 kts | 70° |
| 2026-05-04 17:03 | 45.91876 | 58.40280 | 36936 ft | 515 kts | 70° |
| 2026-05-04 17:04 | 45.96538 | 58.59718 | 36936 ft | 514 kts | 71° |
| 2026-05-04 17:05 | 46.01146 | 58.79095 | 36944 ft | 514 kts | 71° |
| 2026-05-04 17:06 | 46.04589 | 58.93685 | 36941 ft | 513 kts | 71° |
| 2026-05-04 17:07 | 46.07626 | 59.06634 | 36947 ft | 513 kts | 71° |
| 2026-05-04 17:07 | 46.10266 | 59.17957 | 36947 ft | 513 kts | 71° |
| 2026-05-04 17:08 | 46.13654 | 59.32570 | 36947 ft | 512 kts | 71° |
| 2026-05-04 17:09 | 46.15901 | 59.42318 | 36945 ft | 512 kts | 71° |
| 2026-05-04 17:09 | 46.18125 | 59.52013 | 36950 ft | 512 kts | 71° |
| 2026-05-04 17:10 | 46.23675 | 59.76390 | 36949 ft | 511 kts | 72° |
| 2026-05-04 17:11 | 46.25866 | 59.86155 | 36952 ft | 511 kts | 72° |
| 2026-05-04 17:12 | 46.29109 | 60.00717 | 36956 ft | 508 kts | 72° |
| 2026-05-04 17:13 | 46.34490 | 60.25063 | 36954 ft | 508 kts | 72° |
| 2026-05-04 17:14 | 46.38744 | 60.44503 | 36957 ft | 508 kts | 72° |
| 2026-05-04 17:15 | 46.41923 | 60.59155 | 36957 ft | 508 kts | 72° |
| 2026-05-04 17:16 | 46.46114 | 60.78632 | 36963 ft | 507 kts | 73° |
| 2026-05-04 17:17 | 46.50282 | 60.98183 | 36960 ft | 507 kts | 73° |
| 2026-05-04 17:18 | 46.54400 | 61.17689 | 36962 ft | 507 kts | 73° |
| 2026-05-04 17:19 | 46.58496 | 61.37274 | 36969 ft | 507 kts | 73° |
| 2026-05-04 17:20 | 46.62535 | 61.56777 | 36967 ft | 505 kts | 73° |
| 2026-05-04 17:20 | 46.65549 | 61.71453 | 36966 ft | 505 kts | 73° |
| 2026-05-04 17:21 | 46.69521 | 61.90964 | 36966 ft | 503 kts | 74° |
| 2026-05-04 17:22 | 46.71498 | 62.00745 | 36966 ft | 503 kts | 74° |
| 2026-05-04 17:23 | 46.75413 | 62.20263 | 36971 ft | 502 kts | 74° |
| 2026-05-04 17:24 | 46.78330 | 62.34931 | 36974 ft | 502 kts | 74° |
| 2026-05-04 17:25 | 46.82192 | 62.54520 | 36977 ft | 502 kts | 74° |
| 2026-05-04 17:26 | 46.86003 | 62.74037 | 36976 ft | 501 kts | 74° |
| 2026-05-04 17:27 | 46.90733 | 62.98551 | 36977 ft | 500 kts | 75° |
| 2026-05-04 17:28 | 46.94458 | 63.18075 | 36983 ft | 500 kts | 75° |
| 2026-05-04 17:29 | 46.99986 | 63.47425 | 36986 ft | 499 kts | 75° |
| 2026-05-04 17:31 | 47.04541 | 63.71965 | 36984 ft | 499 kts | 75° |
| 2026-05-04 17:32 | 47.09027 | 63.96450 | 36994 ft | 499 kts | 75° |
| 2026-05-04 17:33 | 47.12588 | 64.16126 | 36990 ft | 499 kts | 75° |
| 2026-05-04 17:34 | 47.16104 | 64.35760 | 36992 ft | 499 kts | 76° |
| 2026-05-04 17:35 | 47.20458 | 64.60342 | 36990 ft | 498 kts | 76° |
| 2026-05-04 17:36 | 47.22195 | 64.70211 | 36992 ft | 498 kts | 76° |
| 2026-05-04 17:36 | 47.23922 | 64.80084 | 36997 ft | 498 kts | 76° |
| 2026-05-04 17:37 | 47.25642 | 64.89968 | 36996 ft | 498 kts | 76° |
| 2026-05-04 17:37 | 47.27342 | 64.99791 | 36997 ft | 499 kts | 76° |
| 2026-05-04 17:38 | 47.29046 | 65.09685 | 37002 ft | 499 kts | 76° |
| 2026-05-04 17:38 | 47.30737 | 65.19594 | 37008 ft | 498 kts | 76° |
| 2026-05-04 17:39 | 47.33263 | 65.34457 | 37007 ft | 498 kts | 76° |
| 2026-05-04 17:39 | 47.34919 | 65.44310 | 37015 ft | 498 kts | 76° |
| 2026-05-04 17:40 | 47.36580 | 65.54235 | 37018 ft | 498 kts | 76° |
| 2026-05-04 17:40 | 47.38233 | 65.64165 | 37018 ft | 499 kts | 76° |
| 2026-05-04 17:41 | 47.39878 | 65.74104 | 37026 ft | 499 kts | 76° |
| 2026-05-04 17:41 | 47.41505 | 65.83988 | 37026 ft | 499 kts | 76° |
| 2026-05-04 17:42 | 47.43175 | 65.93918 | 37031 ft | 498 kts | 75° |
| 2026-05-04 17:42 | 47.44883 | 66.03845 | 37038 ft | 498 kts | 75° |
| 2026-05-04 17:43 | 47.46568 | 66.13707 | 37039 ft | 499 kts | 76° |
| 2026-05-04 17:43 | 47.48248 | 66.23651 | 37044 ft | 499 kts | 76° |
| 2026-05-04 17:44 | 47.49916 | 66.33602 | 37053 ft | 499 kts | 76° |
| 2026-05-04 17:44 | 47.51575 | 66.43559 | 37054 ft | 499 kts | 76° |
| 2026-05-04 17:45 | 47.53218 | 66.53472 | 37056 ft | 500 kts | 76° |
| 2026-05-04 17:45 | 47.54862 | 66.63462 | 37056 ft | 500 kts | 76° |
| 2026-05-04 17:46 | 47.56498 | 66.73454 | 37061 ft | 500 kts | 76° |
| 2026-05-04 17:46 | 47.58087 | 66.83474 | 37060 ft | 500 kts | 76° |
| 2026-05-04 17:47 | 47.59629 | 66.93455 | 37062 ft | 501 kts | 76° |
| 2026-05-04 17:47 | 47.61160 | 67.03394 | 37064 ft | 501 kts | 76° |
| 2026-05-04 17:48 | 47.62707 | 67.13457 | 37063 ft | 497 kts | 76° |
| 2026-05-04 17:48 | 47.64229 | 67.23400 | 37070 ft | 498 kts | 76° |
| 2026-05-04 17:49 | 47.65763 | 67.33473 | 37067 ft | 502 kts | 77° |
| 2026-05-04 17:49 | 47.67291 | 67.43581 | 37067 ft | 502 kts | 77° |
| 2026-05-04 17:50 | 47.68798 | 67.53618 | 37069 ft | 502 kts | 77° |
| 2026-05-04 17:50 | 47.69555 | 67.58681 | 37205 ft | 502 kts | 77° |
| 2026-05-04 17:50 | 47.70308 | 67.63739 | 37402 ft | 501 kts | 77° |
| 2026-05-04 17:51 | 47.71058 | 67.68788 | 37611 ft | 501 kts | 77° |
| 2026-05-04 17:51 | 47.71805 | 67.73835 | 37801 ft | 500 kts | 77° |
| 2026-05-04 17:51 | 47.72539 | 67.78882 | 37986 ft | 500 kts | 78° |
| 2026-05-04 17:51 | 47.73129 | 67.83963 | 38163 ft | 500 kts | 81° |
| 2026-05-04 17:52 | 47.73607 | 67.89075 | 38344 ft | 499 kts | 82° |
| 2026-05-04 17:52 | 47.74039 | 67.94120 | 38511 ft | 499 kts | 82° |
| 2026-05-04 17:52 | 47.74475 | 67.99231 | 38683 ft | 499 kts | 82° |
| 2026-05-04 17:52 | 47.74926 | 68.04341 | 38816 ft | 499 kts | 81° |
| 2026-05-04 17:53 | 47.75392 | 68.09450 | 38936 ft | 498 kts | 81° |
| 2026-05-04 17:53 | 47.75869 | 68.14552 | 39049 ft | 499 kts | 81° |
| 2026-05-04 17:53 | 47.76839 | 68.24790 | 39078 ft | 501 kts | 81° |
| 2026-05-04 17:54 | 47.77799 | 68.34955 | 39077 ft | 500 kts | 81° |
| 2026-05-04 17:54 | 47.78754 | 68.45188 | 39076 ft | 499 kts | 81° |
| 2026-05-04 17:55 | 47.79697 | 68.55414 | 39078 ft | 500 kts | 81° |
| 2026-05-04 17:55 | 47.80631 | 68.65657 | 39078 ft | 500 kts | 81° |
| 2026-05-04 17:56 | 47.81549 | 68.75830 | 39078 ft | 500 kts | 81° |
| 2026-05-04 17:56 | 47.81961 | 68.86140 | 39078 ft | 500 kts | 89° |
| 2026-05-04 17:57 | 47.81846 | 68.96498 | 39076 ft | 501 kts | 91° |
| 2026-05-04 17:57 | 47.81640 | 69.06855 | 39074 ft | 501 kts | 91° |
| 2026-05-04 17:58 | 47.81424 | 69.17151 | 39077 ft | 501 kts | 91° |
| 2026-05-04 17:58 | 47.81211 | 69.27501 | 39078 ft | 500 kts | 91° |
| 2026-05-04 17:59 | 47.80994 | 69.37844 | 39075 ft | 501 kts | 91° |
| 2026-05-04 18:00 | 47.80653 | 69.53326 | 39077 ft | 502 kts | 91° |
| 2026-05-04 18:00 | 47.80412 | 69.63696 | 39078 ft | 502 kts | 91° |
| 2026-05-04 18:01 | 47.80162 | 69.74068 | 39077 ft | 502 kts | 91° |
| 2026-05-04 18:01 | 47.79947 | 69.82683 | 39077 ft | 502 kts | 91° |
| 2026-05-04 18:02 | 47.79498 | 69.99925 | 39078 ft | 502 kts | 91° |
| 2026-05-04 18:02 | 47.79215 | 70.10296 | 39081 ft | 502 kts | 91° |
| 2026-05-04 18:03 | 47.78973 | 70.18918 | 39074 ft | 502 kts | 91° |
| 2026-05-04 18:03 | 47.78673 | 70.29269 | 39090 ft | 500 kts | 91° |
| 2026-05-04 18:04 | 47.78365 | 70.39578 | 39089 ft | 499 kts | 91° |
| 2026-05-04 18:05 | 47.77887 | 70.55032 | 39094 ft | 499 kts | 91° |
| 2026-05-04 18:05 | 47.77561 | 70.65254 | 39099 ft | 499 kts | 91° |
| 2026-05-04 18:06 | 47.77048 | 70.80702 | 39101 ft | 499 kts | 91° |
| 2026-05-04 18:06 | 47.76689 | 70.90990 | 39103 ft | 499 kts | 91° |
| 2026-05-04 18:07 | 47.76323 | 71.01283 | 39109 ft | 499 kts | 92° |
| 2026-05-04 18:07 | 47.75952 | 71.11504 | 39109 ft | 498 kts | 92° |
| 2026-05-04 18:08 | 47.75570 | 71.21789 | 39116 ft | 499 kts | 92° |
| 2026-05-04 18:08 | 47.75178 | 71.32080 | 39117 ft | 499 kts | 92° |
| 2026-05-04 18:09 | 47.74369 | 71.52585 | 39128 ft | 499 kts | 92° |
| 2026-05-04 18:10 | 47.73949 | 71.62872 | 39130 ft | 499 kts | 92° |
| 2026-05-04 18:10 | 47.73520 | 71.73160 | 39138 ft | 499 kts | 92° |
| 2026-05-04 18:11 | 47.73082 | 71.83455 | 39129 ft | 499 kts | 92° |
| 2026-05-04 18:11 | 47.72546 | 71.93735 | 39137 ft | 500 kts | 94° |
| 2026-05-04 18:12 | 47.71927 | 72.03945 | 39137 ft | 500 kts | 94° |
| 2026-05-04 18:12 | 47.71303 | 72.14225 | 39150 ft | 500 kts | 94° |
| 2026-05-04 18:13 | 47.70686 | 72.24521 | 39146 ft | 501 kts | 94° |
| 2026-05-04 18:14 | 47.69758 | 72.39874 | 39150 ft | 500 kts | 94° |
| 2026-05-04 18:14 | 47.69126 | 72.50150 | 39148 ft | 500 kts | 94° |
| 2026-05-04 18:15 | 47.67833 | 72.70692 | 39155 ft | 500 kts | 94° |
| 2026-05-04 18:16 | 47.67176 | 72.80895 | 39151 ft | 500 kts | 94° |
| 2026-05-04 18:16 | 47.66506 | 72.91156 | 39150 ft | 500 kts | 94° |
| 2026-05-04 18:17 | 47.65483 | 73.06560 | 39158 ft | 501 kts | 94° |
| 2026-05-04 18:18 | 47.64438 | 73.21987 | 39154 ft | 501 kts | 94° |
| 2026-05-04 18:18 | 47.63734 | 73.32206 | 39147 ft | 501 kts | 94° |
| 2026-05-04 18:19 | 47.62654 | 73.47619 | 39154 ft | 501 kts | 94° |
| 2026-05-04 18:19 | 47.61922 | 73.57907 | 39149 ft | 502 kts | 94° |
| 2026-05-04 18:20 | 47.61185 | 73.68139 | 39149 ft | 502 kts | 94° |
| 2026-05-04 18:20 | 47.60434 | 73.78429 | 39156 ft | 502 kts | 94° |
| 2026-05-04 18:21 | 47.59673 | 73.88715 | 39149 ft | 502 kts | 94° |
| 2026-05-04 18:21 | 47.58899 | 73.99015 | 39154 ft | 504 kts | 94° |
| 2026-05-04 18:22 | 47.58125 | 74.09258 | 39155 ft | 504 kts | 94° |
| 2026-05-04 18:22 | 47.57336 | 74.19568 | 39158 ft | 504 kts | 95° |
| 2026-05-04 18:23 | 47.56536 | 74.29888 | 39147 ft | 504 kts | 95° |
| 2026-05-04 18:23 | 47.55728 | 74.40182 | 39161 ft | 504 kts | 95° |
| 2026-05-04 18:24 | 47.54909 | 74.50492 | 39165 ft | 505 kts | 95° |
| 2026-05-04 18:24 | 47.54086 | 74.60739 | 39165 ft | 505 kts | 95° |
| 2026-05-04 18:25 | 47.53247 | 74.71054 | 39168 ft | 505 kts | 95° |
| 2026-05-04 18:25 | 47.52400 | 74.81359 | 39163 ft | 505 kts | 95° |
| 2026-05-04 18:26 | 47.51543 | 74.91682 | 39162 ft | 506 kts | 95° |
| 2026-05-04 18:26 | 47.50681 | 75.01938 | 39166 ft | 506 kts | 95° |
| 2026-05-04 18:27 | 47.49804 | 75.12267 | 39165 ft | 506 kts | 95° |
| 2026-05-04 18:27 | 47.48918 | 75.22585 | 39165 ft | 506 kts | 95° |
| 2026-05-04 18:28 | 47.48022 | 75.32908 | 39165 ft | 506 kts | 96° |
| 2026-05-04 18:28 | 47.47123 | 75.43155 | 39170 ft | 506 kts | 96° |
| 2026-05-04 18:29 | 47.46208 | 75.53474 | 39162 ft | 506 kts | 96° |
| 2026-05-04 18:29 | 47.45284 | 75.63780 | 39162 ft | 506 kts | 96° |
| 2026-05-04 18:30 | 47.43881 | 75.79244 | 39168 ft | 507 kts | 96° |
| 2026-05-04 18:31 | 47.42939 | 75.89500 | 39169 ft | 507 kts | 96° |
| 2026-05-04 18:31 | 47.41981 | 75.99819 | 39168 ft | 507 kts | 96° |
| 2026-05-04 18:32 | 47.41014 | 76.10135 | 39174 ft | 507 kts | 96° |
| 2026-05-04 18:32 | 47.40037 | 76.20453 | 39175 ft | 508 kts | 96° |
| 2026-05-04 18:33 | 47.39058 | 76.30710 | 39176 ft | 508 kts | 97° |
| 2026-05-04 18:33 | 47.38063 | 76.41040 | 39180 ft | 508 kts | 97° |
| 2026-05-04 18:34 | 47.37055 | 76.51362 | 39182 ft | 508 kts | 97° |
| 2026-05-04 18:34 | 47.36037 | 76.61682 | 39191 ft | 509 kts | 97° |
| 2026-05-04 18:35 | 47.35010 | 76.72014 | 39181 ft | 510 kts | 97° |
| 2026-05-04 18:35 | 47.33973 | 76.82356 | 39182 ft | 510 kts | 98° |
| 2026-05-04 18:36 | 47.32933 | 76.92631 | 39181 ft | 510 kts | 98° |
| 2026-05-04 18:36 | 47.31878 | 77.02962 | 39184 ft | 510 kts | 98° |
| 2026-05-04 18:37 | 47.30978 | 77.13322 | 39186 ft | 509 kts | 94° |
| 2026-05-04 18:37 | 47.30513 | 77.23731 | 39186 ft | 509 kts | 92° |
| 2026-05-04 18:38 | 47.30071 | 77.34083 | 39183 ft | 510 kts | 93° |
| 2026-05-04 18:38 | 47.29546 | 77.44500 | 39184 ft | 510 kts | 94° |
| 2026-05-04 18:39 | 47.28974 | 77.54923 | 39181 ft | 511 kts | 94° |
| 2026-05-04 18:39 | 47.28384 | 77.65362 | 39181 ft | 512 kts | 94° |
| 2026-05-04 18:40 | 47.27791 | 77.75737 | 39184 ft | 512 kts | 94° |
| 2026-05-04 18:40 | 47.27186 | 77.86184 | 39181 ft | 512 kts | 94° |
| 2026-05-04 18:41 | 47.26573 | 77.96627 | 39185 ft | 512 kts | 94° |
| 2026-05-04 18:41 | 47.25949 | 78.07084 | 39179 ft | 513 kts | 94° |
| 2026-05-04 18:42 | 47.25318 | 78.17485 | 39178 ft | 513 kts | 95° |
| 2026-05-04 18:42 | 47.24675 | 78.27946 | 39176 ft | 513 kts | 95° |
| 2026-05-04 18:43 | 47.24021 | 78.38403 | 39179 ft | 514 kts | 95° |
| 2026-05-04 18:43 | 47.23357 | 78.48882 | 39173 ft | 515 kts | 95° |
| 2026-05-04 18:44 | 47.22687 | 78.59311 | 39161 ft | 516 kts | 95° |
| 2026-05-04 18:44 | 47.22001 | 78.69819 | 39168 ft | 516 kts | 95° |
| 2026-05-04 18:45 | 47.21306 | 78.80332 | 39177 ft | 517 kts | 95° |
| 2026-05-04 18:45 | 47.20598 | 78.90877 | 39163 ft | 519 kts | 95° |
| 2026-05-04 18:46 | 47.19884 | 79.01380 | 39162 ft | 520 kts | 95° |
| 2026-05-04 18:46 | 47.19155 | 79.11945 | 39150 ft | 520 kts | 95° |
| 2026-05-04 18:47 | 47.18414 | 79.22514 | 39164 ft | 520 kts | 95° |
| 2026-05-04 18:47 | 47.17638 | 79.33097 | 39152 ft | 522 kts | 96° |
| 2026-05-04 18:48 | 47.16851 | 79.43642 | 39148 ft | 523 kts | 96° |
| 2026-05-04 18:48 | 47.16054 | 79.54258 | 39149 ft | 523 kts | 96° |
| 2026-05-04 18:49 | 47.15250 | 79.64875 | 39151 ft | 523 kts | 96° |
| 2026-05-04 18:49 | 47.14435 | 79.75500 | 39138 ft | 524 kts | 96° |
| 2026-05-04 18:50 | 47.13613 | 79.86078 | 39133 ft | 525 kts | 96° |
| 2026-05-04 18:50 | 47.12795 | 79.96720 | 39130 ft | 524 kts | 95° |
| 2026-05-04 18:51 | 47.11978 | 80.07354 | 39124 ft | 524 kts | 95° |
| 2026-05-04 18:51 | 47.11150 | 80.17989 | 39114 ft | 525 kts | 96° |
| 2026-05-04 18:52 | 47.10315 | 80.28563 | 39106 ft | 525 kts | 96° |
| 2026-05-04 18:52 | 47.09464 | 80.39196 | 39105 ft | 525 kts | 96° |
| 2026-05-04 18:53 | 47.08603 | 80.49835 | 39094 ft | 525 kts | 96° |
| 2026-05-04 18:53 | 47.07731 | 80.60474 | 39077 ft | 526 kts | 96° |
| 2026-05-04 18:54 | 47.06849 | 80.71124 | 39080 ft | 526 kts | 96° |
| 2026-05-04 18:54 | 47.05962 | 80.81701 | 39074 ft | 526 kts | 96° |
| 2026-05-04 18:55 | 47.05061 | 80.92339 | 39076 ft | 526 kts | 96° |
| 2026-05-04 18:55 | 47.03690 | 81.08319 | 39062 ft | 527 kts | 96° |
| 2026-05-04 18:56 | 47.02768 | 81.18897 | 39068 ft | 527 kts | 96° |
| 2026-05-04 18:56 | 47.01829 | 81.29543 | 39061 ft | 526 kts | 96° |
| 2026-05-04 18:57 | 47.00882 | 81.40173 | 39063 ft | 526 kts | 96° |
| 2026-05-04 18:57 | 46.99926 | 81.50805 | 39061 ft | 526 kts | 97° |
| 2026-05-04 18:58 | 46.98960 | 81.61427 | 39056 ft | 526 kts | 97° |
| 2026-05-04 18:58 | 46.97990 | 81.71985 | 39057 ft | 526 kts | 97° |
| 2026-05-04 18:59 | 46.97005 | 81.82602 | 39058 ft | 526 kts | 97° |
| 2026-05-04 18:59 | 46.96009 | 81.93221 | 39058 ft | 527 kts | 97° |
| 2026-05-04 19:00 | 46.95003 | 82.03837 | 39060 ft | 527 kts | 97° |
| 2026-05-04 19:00 | 46.93981 | 82.14380 | 39057 ft | 527 kts | 97° |
| 2026-05-04 19:01 | 46.92943 | 82.24988 | 39056 ft | 527 kts | 97° |
| 2026-05-04 19:01 | 46.91898 | 82.35601 | 39057 ft | 527 kts | 97° |
| 2026-05-04 19:02 | 46.90844 | 82.46204 | 39061 ft | 527 kts | 98° |
| 2026-05-04 19:02 | 46.89787 | 82.56745 | 39060 ft | 527 kts | 98° |
| 2026-05-04 19:03 | 46.88713 | 82.67343 | 39057 ft | 527 kts | 98° |
| 2026-05-04 19:03 | 46.87630 | 82.77943 | 39047 ft | 527 kts | 98° |
| 2026-05-04 19:04 | 46.86066 | 82.88394 | 39056 ft | 527 kts | 111° |
| 2026-05-04 19:04 | 46.82744 | 82.97795 | 39054 ft | 524 kts | 122° |
| 2026-05-04 19:05 | 46.78895 | 83.06836 | 39054 ft | 525 kts | 124° |
| 2026-05-04 19:05 | 46.74968 | 83.15809 | 39043 ft | 524 kts | 124° |
| 2026-05-04 19:06 | 46.71061 | 83.24775 | 39046 ft | 524 kts | 124° |
| 2026-05-04 19:06 | 46.67166 | 83.33751 | 39053 ft | 524 kts | 124° |
| 2026-05-04 19:07 | 46.63209 | 83.42567 | 39038 ft | 523 kts | 128° |
| 2026-05-04 19:07 | 46.58885 | 83.51053 | 39034 ft | 522 kts | 129° |
| 2026-05-04 19:08 | 46.54515 | 83.59486 | 39031 ft | 523 kts | 129° |
| 2026-05-04 19:08 | 46.50183 | 83.67973 | 39031 ft | 523 kts | 129° |
| 2026-05-04 19:09 | 46.45902 | 83.76425 | 39012 ft | 523 kts | 129° |
| 2026-05-04 19:09 | 46.41597 | 83.84921 | 39027 ft | 523 kts | 129° |
| 2026-05-04 19:10 | 46.37280 | 83.93407 | 39019 ft | 523 kts | 129° |
| 2026-05-04 19:10 | 46.32956 | 84.01878 | 39022 ft | 523 kts | 129° |
| 2026-05-04 19:11 | 46.28651 | 84.10292 | 39008 ft | 524 kts | 129° |
| 2026-05-04 19:11 | 46.24306 | 84.18753 | 39005 ft | 524 kts | 129° |
| 2026-05-04 19:12 | 46.17739 | 84.31388 | 38977 ft | 525 kts | 130° |
| 2026-05-04 19:13 | 46.13348 | 84.39808 | 38976 ft | 525 kts | 130° |
| 2026-05-04 19:13 | 46.08984 | 84.48160 | 38952 ft | 525 kts | 130° |
| 2026-05-04 19:14 | 46.04588 | 84.56551 | 38947 ft | 525 kts | 130° |
| 2026-05-04 19:14 | 46.00190 | 84.64923 | 38929 ft | 523 kts | 130° |
| 2026-05-04 19:15 | 45.95803 | 84.73250 | 38929 ft | 522 kts | 130° |
| 2026-05-04 19:15 | 45.91441 | 84.81500 | 38913 ft | 522 kts | 131° |
| 2026-05-04 19:16 | 45.87047 | 84.89788 | 38908 ft | 521 kts | 131° |
| 2026-05-04 19:16 | 45.82664 | 84.98035 | 38899 ft | 518 kts | 131° |
| 2026-05-04 19:17 | 45.78294 | 85.06230 | 38897 ft | 517 kts | 131° |
| 2026-05-04 19:17 | 45.73949 | 85.14354 | 38889 ft | 517 kts | 131° |
| 2026-05-04 19:18 | 45.69571 | 85.22518 | 38892 ft | 517 kts | 131° |
| 2026-05-04 19:18 | 45.65206 | 85.30690 | 38887 ft | 517 kts | 131° |
| 2026-05-04 19:19 | 45.60842 | 85.38857 | 38889 ft | 517 kts | 131° |
| 2026-05-04 19:19 | 45.56466 | 85.47021 | 38889 ft | 518 kts | 131° |
| 2026-05-04 19:20 | 45.52112 | 85.55116 | 38892 ft | 518 kts | 131° |
| 2026-05-04 19:20 | 45.47724 | 85.63249 | 38885 ft | 518 kts | 131° |
| 2026-05-04 19:21 | 45.43321 | 85.71386 | 38895 ft | 518 kts | 131° |
| 2026-05-04 19:21 | 45.38911 | 85.79513 | 38894 ft | 519 kts | 131° |
| 2026-05-04 19:22 | 45.34530 | 85.87566 | 38898 ft | 518 kts | 131° |
| 2026-05-04 19:22 | 45.30110 | 85.95665 | 38901 ft | 518 kts | 131° |
| 2026-05-04 19:23 | 45.25687 | 86.03747 | 38900 ft | 518 kts | 131° |
| 2026-05-04 19:23 | 45.21258 | 86.11816 | 38908 ft | 518 kts | 131° |
| 2026-05-04 19:24 | 45.16854 | 86.19819 | 38904 ft | 517 kts | 131° |
| 2026-05-04 19:24 | 45.12427 | 86.27841 | 38906 ft | 517 kts | 131° |
| 2026-05-04 19:25 | 45.07995 | 86.35848 | 38908 ft | 517 kts | 131° |
| 2026-05-04 19:25 | 45.03559 | 86.43838 | 38905 ft | 516 kts | 131° |
| 2026-05-04 19:26 | 44.99118 | 86.51818 | 38908 ft | 516 kts | 131° |
| 2026-05-04 19:26 | 44.94698 | 86.59735 | 38899 ft | 516 kts | 132° |
| 2026-05-04 19:27 | 44.90254 | 86.67676 | 38904 ft | 515 kts | 132° |
| 2026-05-04 19:27 | 44.85816 | 86.75584 | 38907 ft | 514 kts | 132° |
| 2026-05-04 19:28 | 44.81369 | 86.83475 | 38906 ft | 514 kts | 133° |
| 2026-05-04 19:28 | 44.76898 | 86.91240 | 38906 ft | 514 kts | 133° |
| 2026-05-04 19:29 | 44.72382 | 86.99020 | 38903 ft | 513 kts | 134° |
| 2026-05-04 19:29 | 44.67872 | 87.06819 | 38902 ft | 514 kts | 133° |
| 2026-05-04 19:30 | 44.63359 | 87.14620 | 38902 ft | 515 kts | 133° |
| 2026-05-04 19:30 | 44.58874 | 87.22357 | 38902 ft | 514 kts | 134° |
| 2026-05-04 19:31 | 44.54357 | 87.30137 | 38899 ft | 514 kts | 133° |
| 2026-05-04 19:31 | 44.49977 | 87.38070 | 38895 ft | 516 kts | 131° |
| 2026-05-04 19:32 | 44.45648 | 87.46113 | 38898 ft | 517 kts | 131° |
| 2026-05-04 19:32 | 44.41327 | 87.54074 | 38894 ft | 518 kts | 131° |
| 2026-05-04 19:33 | 44.36949 | 87.62062 | 38897 ft | 517 kts | 132° |
| 2026-05-04 19:33 | 44.32572 | 87.70012 | 38897 ft | 516 kts | 132° |
| 2026-05-04 19:34 | 44.28255 | 87.78007 | 38903 ft | 516 kts | 131° |
| 2026-05-04 19:34 | 44.23992 | 87.85973 | 38903 ft | 516 kts | 131° |
| 2026-05-04 19:35 | 44.20279 | 87.94579 | 38905 ft | 524 kts | 115° |
| 2026-05-04 19:35 | 44.19190 | 87.99444 | 38914 ft | 528 kts | 104° |
| 2026-05-04 19:35 | 44.18761 | 88.04538 | 38924 ft | 531 kts | 92° |
| 2026-05-04 19:35 | 44.19030 | 88.09673 | 38929 ft | 533 kts | 81° |
| 2026-05-04 19:36 | 44.19665 | 88.14761 | 38927 ft | 534 kts | 79° |
| 2026-05-04 19:36 | 44.21205 | 88.24918 | 38928 ft | 536 kts | 77° |
| 2026-05-04 19:37 | 44.22779 | 88.35004 | 38910 ft | 536 kts | 78° |
| 2026-05-04 19:37 | 44.24307 | 88.45168 | 38908 ft | 536 kts | 78° |
| 2026-05-04 19:38 | 44.25797 | 88.55349 | 38900 ft | 536 kts | 78° |
| 2026-05-04 19:38 | 44.27273 | 88.65558 | 38895 ft | 537 kts | 78° |
| 2026-05-04 19:39 | 44.28732 | 88.75702 | 38895 ft | 537 kts | 78° |
| 2026-05-04 19:39 | 44.30193 | 88.85916 | 38884 ft | 537 kts | 78° |
| 2026-05-04 19:40 | 44.31647 | 88.96146 | 38880 ft | 538 kts | 79° |
| 2026-05-04 19:40 | 44.33093 | 89.06395 | 38878 ft | 538 kts | 79° |
| 2026-05-04 19:41 | 44.34521 | 89.16578 | 38876 ft | 538 kts | 79° |
| 2026-05-04 19:41 | 44.35949 | 89.26839 | 38870 ft | 538 kts | 79° |
| 2026-05-04 19:42 | 44.37369 | 89.37112 | 38873 ft | 539 kts | 79° |
| 2026-05-04 19:42 | 44.38783 | 89.47408 | 38867 ft | 539 kts | 79° |
| 2026-05-04 19:43 | 44.40187 | 89.57703 | 38866 ft | 539 kts | 79° |
| 2026-05-04 19:43 | 44.41126 | 89.68006 | 38865 ft | 537 kts | 92° |
| 2026-05-04 19:43 | 44.40750 | 89.73181 | 38861 ft | 533 kts | 104° |
| 2026-05-04 19:44 | 44.39885 | 89.78202 | 38860 ft | 531 kts | 108° |
| 2026-05-04 19:44 | 44.37804 | 89.88116 | 38865 ft | 531 kts | 110° |
| 2026-05-04 19:45 | 44.35595 | 89.97965 | 38866 ft | 531 kts | 110° |
| 2026-05-04 19:45 | 44.33412 | 90.07764 | 38865 ft | 532 kts | 110° |
| 2026-05-04 19:46 | 44.31231 | 90.17650 | 38865 ft | 533 kts | 110° |
| 2026-05-04 19:46 | 44.29051 | 90.27536 | 38867 ft | 533 kts | 110° |
| 2026-05-04 19:47 | 44.26862 | 90.37421 | 38865 ft | 533 kts | 110° |
| 2026-05-04 19:47 | 44.24677 | 90.47233 | 38862 ft | 534 kts | 110° |
| 2026-05-04 19:48 | 44.22461 | 90.57137 | 38862 ft | 535 kts | 110° |
| 2026-05-04 19:48 | 44.20234 | 90.67042 | 38865 ft | 537 kts | 111° |
| 2026-05-04 19:49 | 44.17993 | 90.76970 | 38864 ft | 537 kts | 111° |
| 2026-05-04 19:49 | 44.15752 | 90.86843 | 38862 ft | 539 kts | 111° |
| 2026-05-04 19:50 | 44.13482 | 90.96807 | 38869 ft | 540 kts | 111° |
| 2026-05-04 19:50 | 44.11203 | 91.06772 | 38867 ft | 540 kts | 111° |
| 2026-05-04 19:51 | 44.08917 | 91.16720 | 38860 ft | 540 kts | 111° |
| 2026-05-04 19:51 | 44.06636 | 91.26600 | 38868 ft | 541 kts | 111° |
| 2026-05-04 19:52 | 44.04328 | 91.36552 | 38869 ft | 541 kts | 111° |
| 2026-05-04 19:52 | 44.02012 | 91.46497 | 38869 ft | 541 kts | 111° |
| 2026-05-04 19:53 | 43.99664 | 91.56433 | 38871 ft | 543 kts | 111° |
| 2026-05-04 19:53 | 43.97291 | 91.66401 | 38876 ft | 544 kts | 112° |
| 2026-05-04 19:54 | 43.94928 | 91.76307 | 38876 ft | 544 kts | 112° |
| 2026-05-04 19:54 | 43.92543 | 91.86273 | 38882 ft | 544 kts | 112° |
| 2026-05-04 19:55 | 43.90149 | 91.96229 | 38883 ft | 544 kts | 112° |
| 2026-05-04 19:55 | 43.87748 | 92.06171 | 38879 ft | 544 kts | 112° |
| 2026-05-04 19:56 | 43.85353 | 92.16042 | 38879 ft | 544 kts | 112° |
| 2026-05-04 19:56 | 43.82935 | 92.25967 | 38885 ft | 544 kts | 112° |
| 2026-05-04 19:57 | 43.80507 | 92.35888 | 38862 ft | 546 kts | 112° |
| 2026-05-04 19:57 | 43.78049 | 92.45878 | 38876 ft | 550 kts | 112° |
| 2026-05-04 19:58 | 43.75590 | 92.55842 | 38877 ft | 551 kts | 112° |
| 2026-05-04 19:58 | 43.73104 | 92.65869 | 38872 ft | 551 kts | 112° |
| 2026-05-04 19:59 | 43.70609 | 92.75893 | 38871 ft | 553 kts | 112° |
| 2026-05-04 19:59 | 43.68097 | 92.85937 | 38869 ft | 554 kts | 112° |
| 2026-05-04 20:00 | 43.65590 | 92.95919 | 38879 ft | 554 kts | 113° |
| 2026-05-04 20:00 | 43.63099 | 93.05986 | 38884 ft | 554 kts | 111° |
| 2026-05-04 20:01 | 43.60702 | 93.16090 | 38874 ft | 554 kts | 111° |
| 2026-05-04 20:01 | 43.58302 | 93.26190 | 38861 ft | 554 kts | 111° |
| 2026-05-04 20:02 | 43.55872 | 93.36295 | 38879 ft | 557 kts | 111° |
| 2026-05-04 20:02 | 43.53429 | 93.46373 | 38862 ft | 558 kts | 111° |
| 2026-05-04 20:03 | 43.50959 | 93.56514 | 38870 ft | 558 kts | 112° |
| 2026-05-04 20:03 | 43.48480 | 93.66647 | 38870 ft | 558 kts | 112° |
| 2026-05-04 20:04 | 43.45994 | 93.76766 | 38870 ft | 558 kts | 112° |
| 2026-05-04 20:04 | 43.43514 | 93.86815 | 38856 ft | 559 kts | 112° |
| 2026-05-04 20:05 | 43.41005 | 93.96937 | 38851 ft | 559 kts | 112° |
| 2026-05-04 20:05 | 43.38488 | 94.07052 | 38857 ft | 559 kts | 112° |
| 2026-05-04 20:06 | 43.35959 | 94.17166 | 38852 ft | 559 kts | 112° |
| 2026-05-04 20:06 | 43.33436 | 94.27212 | 38836 ft | 562 kts | 112° |
| 2026-05-04 20:07 | 43.30873 | 94.37370 | 38838 ft | 563 kts | 112° |
| 2026-05-04 20:07 | 43.28303 | 94.47519 | 38828 ft | 563 kts | 112° |
| 2026-05-04 20:08 | 43.25724 | 94.57662 | 38813 ft | 563 kts | 112° |
| 2026-05-04 20:08 | 43.23150 | 94.67735 | 38805 ft | 563 kts | 112° |
| 2026-05-04 20:09 | 43.20554 | 94.77854 | 38773 ft | 562 kts | 112° |
| 2026-05-04 20:09 | 43.17950 | 94.87959 | 38750 ft | 563 kts | 112° |
| 2026-05-04 20:10 | 43.15336 | 94.98059 | 38745 ft | 563 kts | 112° |
| 2026-05-04 20:10 | 43.11886 | 95.07449 | 38737 ft | 549 kts | 133° |
| 2026-05-04 20:10 | 43.09361 | 95.11279 | 38737 ft | 537 kts | 146° |
| 2026-05-04 20:11 | 43.06472 | 95.14433 | 38739 ft | 529 kts | 151° |
| 2026-05-04 20:11 | 43.00445 | 95.20179 | 38727 ft | 527 kts | 154° |
| 2026-05-04 20:12 | 42.94332 | 95.25737 | 38726 ft | 527 kts | 154° |
| 2026-05-04 20:12 | 42.88280 | 95.31274 | 38714 ft | 528 kts | 154° |
| 2026-05-04 20:13 | 42.82192 | 95.36890 | 38718 ft | 529 kts | 154° |
| 2026-05-04 20:13 | 42.76086 | 95.42527 | 38717 ft | 531 kts | 154° |
| 2026-05-04 20:14 | 42.69969 | 95.48166 | 38715 ft | 531 kts | 154° |
| 2026-05-04 20:14 | 42.63845 | 95.53794 | 38716 ft | 533 kts | 154° |
| 2026-05-04 20:15 | 42.57733 | 95.59395 | 38716 ft | 534 kts | 154° |
| 2026-05-04 20:15 | 42.51573 | 95.65030 | 38727 ft | 534 kts | 154° |
| 2026-05-04 20:16 | 42.45482 | 95.70836 | 38710 ft | 543 kts | 147° |
| 2026-05-04 20:16 | 42.42783 | 95.74494 | 38738 ft | 556 kts | 135° |
| 2026-05-04 20:16 | 42.40604 | 95.78869 | 38744 ft | 566 kts | 121° |
| 2026-05-04 20:16 | 42.39143 | 95.83764 | 38744 ft | 572 kts | 106° |
| 2026-05-04 20:17 | 42.38461 | 95.89060 | 38752 ft | 573 kts | 94° |
| 2026-05-04 20:17 | 42.38033 | 95.99835 | 38749 ft | 575 kts | 90° |
| 2026-05-04 20:18 | 42.37841 | 96.10646 | 38764 ft | 575 kts | 90° |
| 2026-05-04 20:18 | 42.37602 | 96.21456 | 38765 ft | 575 kts | 90° |
| 2026-05-04 20:19 | 42.37297 | 96.32193 | 38768 ft | 575 kts | 91° |
| 2026-05-04 20:19 | 42.36959 | 96.43008 | 38765 ft | 575 kts | 91° |
| 2026-05-04 20:20 | 42.36609 | 96.53809 | 38763 ft | 575 kts | 91° |
| 2026-05-04 20:20 | 42.36254 | 96.64603 | 38762 ft | 574 kts | 91° |
| 2026-05-04 20:21 | 42.35892 | 96.75381 | 38755 ft | 574 kts | 91° |
| 2026-05-04 20:21 | 42.35331 | 96.91474 | 38746 ft | 574 kts | 91° |
| 2026-05-04 20:22 | 42.34943 | 97.02241 | 38745 ft | 573 kts | 91° |
| 2026-05-04 20:22 | 42.34546 | 97.12997 | 38739 ft | 573 kts | 91° |
| 2026-05-04 20:23 | 42.34138 | 97.23753 | 38727 ft | 573 kts | 91° |
| 2026-05-04 20:23 | 42.33723 | 97.34440 | 38728 ft | 573 kts | 91° |
| 2026-05-04 20:24 | 42.33295 | 97.45193 | 38719 ft | 573 kts | 91° |
| 2026-05-04 20:24 | 42.32857 | 97.55950 | 38729 ft | 573 kts | 91° |
| 2026-05-04 20:25 | 42.32409 | 97.66705 | 38708 ft | 573 kts | 91° |
| 2026-05-04 20:25 | 42.31954 | 97.77367 | 38704 ft | 572 kts | 91° |
| 2026-05-04 20:26 | 42.31487 | 97.88100 | 38715 ft | 572 kts | 91° |
| 2026-05-04 20:26 | 42.31010 | 97.98838 | 38704 ft | 572 kts | 91° |
| 2026-05-04 20:27 | 42.30523 | 98.09549 | 38694 ft | 571 kts | 91° |
| 2026-05-04 20:27 | 42.30031 | 98.20172 | 38689 ft | 570 kts | 91° |
| 2026-05-04 20:28 | 42.29526 | 98.30864 | 38687 ft | 570 kts | 91° |
| 2026-05-04 20:28 | 42.29001 | 98.41547 | 38694 ft | 570 kts | 91° |
| 2026-05-04 20:29 | 42.28442 | 98.52216 | 38677 ft | 569 kts | 92° |
| 2026-05-04 20:29 | 42.27875 | 98.62868 | 38677 ft | 569 kts | 92° |
| 2026-05-04 20:30 | 42.27308 | 98.73447 | 38672 ft | 569 kts | 92° |
| 2026-05-04 20:30 | 42.26729 | 98.84088 | 38663 ft | 567 kts | 92° |
| 2026-05-04 20:31 | 42.26141 | 98.94703 | 38648 ft | 567 kts | 92° |
| 2026-05-04 20:31 | 42.25545 | 99.05311 | 38651 ft | 567 kts | 92° |
| 2026-05-04 20:32 | 42.24942 | 99.15845 | 38647 ft | 565 kts | 92° |
| 2026-05-04 20:32 | 42.24328 | 99.26406 | 38635 ft | 564 kts | 92° |
| 2026-05-04 20:33 | 42.23705 | 99.36949 | 38637 ft | 563 kts | 92° |
| 2026-05-04 20:33 | 42.23073 | 99.47485 | 38637 ft | 563 kts | 92° |
| 2026-05-04 20:34 | 42.22437 | 99.57927 | 38627 ft | 561 kts | 93° |
| 2026-05-04 20:34 | 42.21789 | 99.68407 | 38628 ft | 561 kts | 93° |
| 2026-05-04 20:35 | 42.21130 | 99.78896 | 38626 ft | 561 kts | 93° |
| 2026-05-04 20:35 | 42.20464 | 99.89369 | 38623 ft | 560 kts | 93° |
| 2026-05-04 20:36 | 42.19793 | 99.99749 | 38621 ft | 559 kts | 93° |
| 2026-05-04 20:36 | 42.19108 | 100.10194 | 38619 ft | 559 kts | 93° |
| 2026-05-04 20:37 | 42.18415 | 100.20632 | 38619 ft | 559 kts | 93° |
| 2026-05-04 20:37 | 42.17712 | 100.31058 | 38611 ft | 558 kts | 93° |
| 2026-05-04 20:38 | 42.17001 | 100.41471 | 38611 ft | 558 kts | 93° |
| 2026-05-04 20:38 | 42.16286 | 100.51803 | 38608 ft | 557 kts | 93° |
| 2026-05-04 20:39 | 42.15557 | 100.62203 | 38611 ft | 557 kts | 94° |
| 2026-05-04 20:39 | 42.14819 | 100.72595 | 38605 ft | 557 kts | 94° |
| 2026-05-04 20:40 | 42.14071 | 100.82985 | 38606 ft | 557 kts | 94° |
| 2026-05-04 20:40 | 42.13320 | 100.93299 | 38603 ft | 557 kts | 94° |
| 2026-05-04 20:41 | 42.12383 | 101.03653 | 38603 ft | 558 kts | 102° |
| 2026-05-04 20:41 | 42.10130 | 101.13653 | 38605 ft | 558 kts | 109° |
| 2026-05-04 20:42 | 42.07556 | 101.23517 | 38603 ft | 558 kts | 110° |
| 2026-05-04 20:42 | 42.04927 | 101.33345 | 38592 ft | 558 kts | 110° |
| 2026-05-04 20:43 | 42.02326 | 101.43114 | 38603 ft | 559 kts | 110° |
| 2026-05-04 20:43 | 41.99713 | 101.52958 | 38603 ft | 559 kts | 110° |
| 2026-05-04 20:44 | 41.97097 | 101.62795 | 38606 ft | 559 kts | 110° |
| 2026-05-04 20:44 | 41.94472 | 101.72627 | 38607 ft | 559 kts | 110° |
| 2026-05-04 20:45 | 41.91853 | 101.82391 | 38608 ft | 560 kts | 110° |
| 2026-05-04 20:45 | 41.89207 | 101.92217 | 38609 ft | 560 kts | 110° |
| 2026-05-04 20:46 | 41.86549 | 102.02046 | 38606 ft | 560 kts | 110° |
| 2026-05-04 20:46 | 41.83883 | 102.11865 | 38612 ft | 561 kts | 110° |
| 2026-05-04 20:47 | 41.81224 | 102.21620 | 38611 ft | 561 kts | 110° |
| 2026-05-04 20:47 | 41.78536 | 102.31444 | 38613 ft | 561 kts | 110° |
| 2026-05-04 20:48 | 41.75840 | 102.41258 | 38623 ft | 561 kts | 110° |
| 2026-05-04 20:48 | 41.73132 | 102.51079 | 38616 ft | 563 kts | 110° |
| 2026-05-04 20:49 | 41.70409 | 102.60912 | 38605 ft | 564 kts | 110° |
| 2026-05-04 20:49 | 41.67695 | 102.70678 | 38613 ft | 564 kts | 110° |
| 2026-05-04 20:50 | 41.64959 | 102.80505 | 38621 ft | 564 kts | 110° |
| 2026-05-04 20:50 | 41.62210 | 102.90316 | 38612 ft | 564 kts | 110° |
| 2026-05-04 20:51 | 41.59471 | 103.00057 | 38615 ft | 563 kts | 110° |
| 2026-05-04 20:51 | 41.56712 | 103.09847 | 38614 ft | 563 kts | 110° |
| 2026-05-04 20:52 | 41.53934 | 103.19633 | 38614 ft | 563 kts | 110° |
| 2026-05-04 20:52 | 41.51153 | 103.29398 | 38613 ft | 563 kts | 110° |
| 2026-05-04 20:53 | 41.48364 | 103.39162 | 38613 ft | 563 kts | 110° |
| 2026-05-04 20:53 | 41.45587 | 103.48848 | 38615 ft | 563 kts | 110° |
| 2026-05-04 20:54 | 41.42782 | 103.58593 | 38616 ft | 562 kts | 110° |
| 2026-05-04 20:54 | 41.40450 | 103.66670 | 38614 ft | 562 kts | 110° |
| 2026-05-04 20:55 | 41.37633 | 103.76391 | 38614 ft | 562 kts | 110° |
| 2026-05-04 20:55 | 41.34350 | 103.87671 | 38619 ft | 563 kts | 110° |
| 2026-05-04 20:56 | 41.31517 | 103.97369 | 38620 ft | 562 kts | 110° |
| 2026-05-04 20:56 | 41.29158 | 104.05415 | 38621 ft | 562 kts | 110° |
| 2026-05-04 20:57 | 41.26311 | 104.15095 | 38621 ft | 562 kts | 110° |
| 2026-05-04 20:57 | 41.22994 | 104.26326 | 38622 ft | 562 kts | 110° |
| 2026-05-04 20:58 | 41.20599 | 104.34406 | 38623 ft | 561 kts | 110° |
| 2026-05-04 20:58 | 41.17752 | 104.43976 | 38627 ft | 561 kts | 110° |
| 2026-05-04 20:59 | 41.14881 | 104.53595 | 38631 ft | 561 kts | 110° |
| 2026-05-04 20:59 | 41.11999 | 104.63213 | 38628 ft | 561 kts | 110° |
| 2026-05-04 21:00 | 41.09105 | 104.72812 | 38637 ft | 561 kts | 111° |
| 2026-05-04 21:00 | 41.05983 | 104.82220 | 38647 ft | 562 kts | 114° |
| 2026-05-04 21:01 | 41.02724 | 104.91621 | 38646 ft | 562 kts | 114° |
| 2026-05-04 21:01 | 40.99487 | 105.01029 | 38644 ft | 561 kts | 112° |
| 2026-05-04 21:02 | 40.96278 | 105.10440 | 38660 ft | 561 kts | 112° |
| 2026-05-04 21:02 | 40.93093 | 105.19783 | 38672 ft | 561 kts | 112° |
| 2026-05-04 21:03 | 40.89879 | 105.29179 | 38687 ft | 561 kts | 112° |
| 2026-05-04 21:03 | 40.86635 | 105.38627 | 38675 ft | 566 kts | 112° |
| 2026-05-04 21:04 | 40.83373 | 105.48091 | 38676 ft | 566 kts | 112° |
| 2026-05-04 21:04 | 40.80103 | 105.57544 | 38679 ft | 566 kts | 112° |
| 2026-05-04 21:05 | 40.76824 | 105.66990 | 38693 ft | 565 kts | 112° |
| 2026-05-04 21:05 | 40.73545 | 105.76408 | 38686 ft | 565 kts | 112° |
| 2026-05-04 21:06 | 40.70259 | 105.85814 | 38689 ft | 565 kts | 112° |
| 2026-05-04 21:06 | 40.66966 | 105.95212 | 38689 ft | 565 kts | 112° |
| 2026-05-04 21:07 | 40.63671 | 106.04579 | 38688 ft | 562 kts | 112° |
| 2026-05-04 21:07 | 40.60379 | 106.13910 | 38685 ft | 562 kts | 112° |
| 2026-05-04 21:08 | 40.57103 | 106.23168 | 38683 ft | 562 kts | 112° |
| 2026-05-04 21:08 | 40.53794 | 106.32486 | 38684 ft | 563 kts | 112° |
| 2026-05-04 21:09 | 40.50478 | 106.41784 | 38685 ft | 561 kts | 112° |
| 2026-05-04 21:09 | 40.47164 | 106.51062 | 38692 ft | 561 kts | 112° |
| 2026-05-04 21:10 | 40.43843 | 106.60330 | 38689 ft | 561 kts | 112° |
| 2026-05-04 21:10 | 40.40510 | 106.69599 | 38689 ft | 561 kts | 112° |
| 2026-05-04 21:11 | 40.37181 | 106.78818 | 38691 ft | 558 kts | 112° |
| 2026-05-04 21:11 | 40.33852 | 106.88016 | 38688 ft | 558 kts | 112° |
| 2026-05-04 21:12 | 40.31440 | 106.97546 | 38690 ft | 545 kts | 92° |
| 2026-05-04 21:12 | 40.31324 | 107.07308 | 38697 ft | 529 kts | 80° |
| 2026-05-04 21:13 | 40.31800 | 107.16877 | 38690 ft | 525 kts | 78° |
| 2026-05-04 21:13 | 40.32351 | 107.26426 | 38690 ft | 526 kts | 78° |
| 2026-05-04 21:14 | 40.32858 | 107.35919 | 38692 ft | 526 kts | 79° |
| 2026-05-04 21:14 | 40.33329 | 107.45463 | 38695 ft | 523 kts | 79° |
| 2026-05-04 21:15 | 40.33783 | 107.54975 | 38703 ft | 523 kts | 79° |
| 2026-05-04 21:15 | 40.34232 | 107.64488 | 38700 ft | 523 kts | 79° |
| 2026-05-04 21:16 | 40.34673 | 107.74012 | 38701 ft | 523 kts | 79° |
| 2026-05-04 21:16 | 40.35103 | 107.83498 | 38701 ft | 521 kts | 79° |
| 2026-05-04 21:17 | 40.35528 | 107.92970 | 38702 ft | 521 kts | 79° |
| 2026-05-04 21:17 | 40.35948 | 108.02479 | 38705 ft | 523 kts | 79° |
| 2026-05-04 21:18 | 40.36337 | 108.12004 | 38699 ft | 524 kts | 79° |
| 2026-05-04 21:18 | 40.36707 | 108.21539 | 38704 ft | 524 kts | 79° |
| 2026-05-04 21:19 | 40.37073 | 108.31079 | 38705 ft | 524 kts | 80° |
| 2026-05-04 21:19 | 40.37434 | 108.40615 | 38705 ft | 524 kts | 80° |
| 2026-05-04 21:20 | 40.37686 | 108.47396 | 38705 ft | 522 kts | 80° |
| 2026-05-04 21:20 | 40.38033 | 108.56896 | 38706 ft | 521 kts | 80° |
| 2026-05-04 21:21 | 40.38373 | 108.66392 | 38711 ft | 521 kts | 80° |
| 2026-05-04 21:21 | 40.38705 | 108.75896 | 38719 ft | 521 kts | 80° |
| 2026-05-04 21:22 | 40.39026 | 108.85376 | 38719 ft | 520 kts | 81° |
| 2026-05-04 21:22 | 40.39341 | 108.94844 | 38719 ft | 520 kts | 81° |
| 2026-05-04 21:23 | 40.39647 | 109.04266 | 38731 ft | 522 kts | 81° |
| 2026-05-04 21:23 | 40.39951 | 109.13841 | 38741 ft | 521 kts | 81° |
| 2026-05-04 21:24 | 40.40239 | 109.23271 | 38730 ft | 521 kts | 81° |
| 2026-05-04 21:24 | 40.40524 | 109.32763 | 38736 ft | 521 kts | 81° |
| 2026-05-04 21:25 | 40.40801 | 109.42260 | 38741 ft | 521 kts | 81° |
| 2026-05-04 21:25 | 40.41069 | 109.51751 | 38742 ft | 521 kts | 82° |
| 2026-05-04 21:26 | 40.41326 | 109.61069 | 38747 ft | 521 kts | 82° |
| 2026-05-04 21:26 | 40.41580 | 109.70566 | 38752 ft | 521 kts | 82° |
| 2026-05-04 21:27 | 40.41826 | 109.80064 | 38767 ft | 521 kts | 82° |
| 2026-05-04 21:27 | 40.42063 | 109.89545 | 38751 ft | 520 kts | 82° |
| 2026-05-04 21:28 | 40.42292 | 109.99035 | 38759 ft | 520 kts | 83° |
| 2026-05-04 21:28 | 40.42316 | 110.08554 | 38767 ft | 524 kts | 85° |
| 2026-05-04 21:29 | 40.42206 | 110.18116 | 38764 ft | 523 kts | 86° |
| 2026-05-04 21:29 | 40.42112 | 110.27671 | 38774 ft | 522 kts | 85° |
| 2026-05-04 21:30 | 40.42031 | 110.37032 | 38778 ft | 504 kts | 85° |
| 2026-05-04 21:30 | 40.41960 | 110.46181 | 38792 ft | 501 kts | 85° |
| 2026-05-04 21:31 | 40.41852 | 110.59906 | 38790 ft | 502 kts | 86° |
| 2026-05-04 21:32 | 40.41766 | 110.69065 | 38788 ft | 502 kts | 86° |
| 2026-05-04 21:32 | 40.41671 | 110.78219 | 38790 ft | 502 kts | 86° |
| 2026-05-04 21:33 | 40.41570 | 110.87320 | 38790 ft | 502 kts | 86° |
| 2026-05-04 21:33 | 40.41460 | 110.96475 | 38791 ft | 501 kts | 86° |
| 2026-05-04 21:34 | 40.41344 | 111.05616 | 38798 ft | 501 kts | 86° |
| 2026-05-04 21:34 | 40.41220 | 111.14769 | 38802 ft | 501 kts | 87° |
| 2026-05-04 21:35 | 40.41090 | 111.23897 | 38808 ft | 500 kts | 87° |
| 2026-05-04 21:35 | 40.40955 | 111.33015 | 38801 ft | 501 kts | 87° |
| 2026-05-04 21:36 | 40.40809 | 111.42154 | 38801 ft | 501 kts | 87° |
| 2026-05-04 21:36 | 40.40653 | 111.51295 | 38810 ft | 501 kts | 88° |
| 2026-05-04 21:37 | 40.40490 | 111.60436 | 38810 ft | 501 kts | 88° |
| 2026-05-04 21:37 | 40.40321 | 111.69569 | 38809 ft | 501 kts | 88° |
| 2026-05-04 21:38 | 40.40146 | 111.78705 | 38809 ft | 501 kts | 88° |
| 2026-05-04 21:38 | 40.39964 | 111.87838 | 38812 ft | 500 kts | 88° |
| 2026-05-04 21:38 | 40.39581 | 111.92371 | 38814 ft | 504 kts | 101° |
| 2026-05-04 21:39 | 40.38403 | 111.96703 | 38818 ft | 506 kts | 117° |
| 2026-05-04 21:39 | 40.36420 | 112.00491 | 38817 ft | 505 kts | 134° |
| 2026-05-04 21:39 | 40.33769 | 112.03475 | 38820 ft | 502 kts | 150° |
| 2026-05-04 21:39 | 40.30654 | 112.05436 | 38818 ft | 496 kts | 166° |
| 2026-05-04 21:40 | 40.27297 | 112.06254 | 38817 ft | 487 kts | 182° |
| 2026-05-04 21:40 | 40.23969 | 112.05885 | 38803 ft | 477 kts | 199° |
| 2026-05-04 21:40 | 40.20898 | 112.04377 | 38820 ft | 466 kts | 215° |
| 2026-05-04 21:41 | 40.14950 | 112.00860 | 38815 ft | 480 kts | 198° |
| 2026-05-04 21:41 | 40.11621 | 112.00329 | 38819 ft | 489 kts | 182° |
| 2026-05-04 21:41 | 40.08227 | 112.00982 | 38817 ft | 497 kts | 166° |
| 2026-05-04 21:41 | 40.05016 | 112.02679 | 38819 ft | 501 kts | 155° |
| 2026-05-04 21:42 | 40.01954 | 112.04869 | 38820 ft | 503 kts | 150° |
| 2026-05-04 21:42 | 39.95578 | 112.08473 | 38835 ft | 498 kts | 167° |
| 2026-05-04 21:43 | 39.88882 | 112.10545 | 38835 ft | 497 kts | 172° |
| 2026-05-04 21:43 | 39.82096 | 112.12212 | 38843 ft | 496 kts | 173° |
| 2026-05-04 21:44 | 39.75251 | 112.13816 | 38849 ft | 496 kts | 172° |
| 2026-05-04 21:44 | 39.68515 | 112.15420 | 38853 ft | 495 kts | 172° |
| 2026-05-04 21:45 | 39.61746 | 112.17051 | 38854 ft | 495 kts | 172° |
| 2026-05-04 21:45 | 39.54977 | 112.18685 | 38860 ft | 496 kts | 172° |
| 2026-05-04 21:46 | 39.48193 | 112.20323 | 38866 ft | 496 kts | 172° |
| 2026-05-04 21:46 | 39.41407 | 112.21994 | 38879 ft | 496 kts | 172° |
| 2026-05-04 21:47 | 39.34621 | 112.23667 | 38871 ft | 496 kts | 172° |
| 2026-05-04 21:47 | 39.27834 | 112.25334 | 38870 ft | 497 kts | 172° |
| 2026-05-04 21:48 | 39.21043 | 112.26997 | 38876 ft | 497 kts | 172° |
| 2026-05-04 21:48 | 39.15392 | 112.28378 | 38872 ft | 497 kts | 172° |
| 2026-05-04 21:49 | 39.08590 | 112.30037 | 38880 ft | 498 kts | 172° |
| 2026-05-04 21:49 | 39.01778 | 112.31696 | 38880 ft | 498 kts | 172° |
| 2026-05-04 21:50 | 38.94962 | 112.33354 | 38884 ft | 498 kts | 172° |
| 2026-05-04 21:50 | 38.88155 | 112.35003 | 38895 ft | 498 kts | 172° |
| 2026-05-04 21:51 | 38.81341 | 112.36652 | 38893 ft | 498 kts | 172° |
| 2026-05-04 21:51 | 38.74528 | 112.38300 | 38899 ft | 498 kts | 172° |
| 2026-05-04 21:52 | 38.67719 | 112.39943 | 38890 ft | 498 kts | 172° |
| 2026-05-04 21:52 | 38.60897 | 112.41584 | 38901 ft | 499 kts | 172° |
| 2026-05-04 21:53 | 38.54072 | 112.43223 | 38896 ft | 499 kts | 172° |
| 2026-05-04 21:53 | 38.47248 | 112.44860 | 38899 ft | 499 kts | 172° |
| 2026-05-04 21:54 | 38.40403 | 112.46501 | 38904 ft | 501 kts | 172° |
| 2026-05-04 21:54 | 38.33544 | 112.48116 | 38908 ft | 501 kts | 172° |
| 2026-05-04 21:55 | 38.26681 | 112.49728 | 38903 ft | 502 kts | 172° |
| 2026-05-04 21:55 | 38.19815 | 112.51342 | 38906 ft | 501 kts | 172° |
| 2026-05-04 21:56 | 38.12959 | 112.52952 | 38905 ft | 501 kts | 172° |
| 2026-05-04 21:56 | 38.06098 | 112.54561 | 38912 ft | 501 kts | 172° |
| 2026-05-04 21:57 | 37.99245 | 112.56166 | 38902 ft | 501 kts | 171° |
| 2026-05-04 21:57 | 37.92400 | 112.57766 | 38910 ft | 500 kts | 172° |
| 2026-05-04 21:58 | 37.85561 | 112.59364 | 38911 ft | 500 kts | 171° |
| 2026-05-04 21:58 | 37.78723 | 112.60987 | 38900 ft | 500 kts | 171° |
| 2026-05-04 21:59 | 37.71897 | 112.62688 | 38911 ft | 500 kts | 168° |
| 2026-05-04 21:59 | 37.65168 | 112.64945 | 38912 ft | 501 kts | 165° |
| 2026-05-04 22:00 | 37.58464 | 112.67338 | 38911 ft | 501 kts | 166° |
| 2026-05-04 22:00 | 37.51747 | 112.69652 | 38915 ft | 501 kts | 166° |
| 2026-05-04 22:01 | 37.45011 | 112.71908 | 38927 ft | 501 kts | 166° |
| 2026-05-04 22:01 | 37.38325 | 112.74128 | 38934 ft | 501 kts | 166° |
| 2026-05-04 22:02 | 37.31585 | 112.76364 | 38927 ft | 501 kts | 166° |
| 2026-05-04 22:02 | 37.24851 | 112.78598 | 38941 ft | 501 kts | 167° |
| 2026-05-04 22:03 | 37.18113 | 112.80829 | 38947 ft | 501 kts | 167° |
| 2026-05-04 22:03 | 37.11381 | 112.83056 | 38953 ft | 500 kts | 167° |
| 2026-05-04 22:04 | 37.04647 | 112.85280 | 38956 ft | 500 kts | 167° |
| 2026-05-04 22:04 | 36.97920 | 112.87508 | 38960 ft | 500 kts | 167° |
| 2026-05-04 22:05 | 36.91188 | 112.89725 | 38957 ft | 500 kts | 167° |
| 2026-05-04 22:05 | 36.84458 | 112.91938 | 38958 ft | 500 kts | 167° |
| 2026-05-04 22:06 | 36.77728 | 112.94149 | 38961 ft | 500 kts | 167° |
| 2026-05-04 22:06 | 36.71037 | 112.96344 | 38959 ft | 501 kts | 167° |
| 2026-05-04 22:07 | 36.64255 | 112.98565 | 38952 ft | 500 kts | 167° |
| 2026-05-04 22:07 | 36.57521 | 113.00766 | 38951 ft | 500 kts | 167° |
| 2026-05-04 22:08 | 36.50829 | 113.02949 | 38949 ft | 501 kts | 167° |
| 2026-05-04 22:08 | 36.44086 | 113.05145 | 38947 ft | 501 kts | 167° |
| 2026-05-04 22:09 | 36.37305 | 113.07350 | 38946 ft | 501 kts | 167° |
| 2026-05-04 22:09 | 36.30560 | 113.09538 | 38943 ft | 501 kts | 167° |
| 2026-05-04 22:10 | 36.23874 | 113.11810 | 38945 ft | 502 kts | 162° |
| 2026-05-04 22:10 | 36.17283 | 113.14657 | 38945 ft | 502 kts | 161° |
| 2026-05-04 22:11 | 36.10717 | 113.17609 | 38943 ft | 502 kts | 161° |
| 2026-05-04 22:11 | 36.04154 | 113.20572 | 38949 ft | 502 kts | 161° |
| 2026-05-04 22:12 | 35.97580 | 113.23525 | 38944 ft | 502 kts | 161° |
| 2026-05-04 22:12 | 35.91008 | 113.26463 | 38949 ft | 502 kts | 161° |
| 2026-05-04 22:13 | 35.84434 | 113.29397 | 38935 ft | 502 kts | 161° |
| 2026-05-04 22:13 | 35.77862 | 113.32341 | 38948 ft | 503 kts | 161° |
| 2026-05-04 22:14 | 35.71289 | 113.35275 | 38947 ft | 503 kts | 161° |
| 2026-05-04 22:14 | 35.64711 | 113.38207 | 38938 ft | 503 kts | 161° |
| 2026-05-04 22:15 | 35.58136 | 113.41140 | 38926 ft | 503 kts | 162° |
| 2026-05-04 22:15 | 35.51557 | 113.44069 | 38925 ft | 502 kts | 162° |
| 2026-05-04 22:16 | 35.44979 | 113.46976 | 38922 ft | 502 kts | 162° |
| 2026-05-04 22:16 | 35.38407 | 113.49890 | 38907 ft | 502 kts | 162° |
| 2026-05-04 22:17 | 35.31840 | 113.52808 | 38898 ft | 502 kts | 162° |
| 2026-05-04 22:17 | 35.25276 | 113.55724 | 38899 ft | 502 kts | 162° |
| 2026-05-04 22:18 | 35.18716 | 113.58633 | 38899 ft | 502 kts | 162° |
| 2026-05-04 22:18 | 35.12153 | 113.61537 | 38896 ft | 502 kts | 162° |
| 2026-05-04 22:19 | 35.05590 | 113.64437 | 38884 ft | 502 kts | 163° |
| 2026-05-04 22:19 | 34.99018 | 113.67335 | 38892 ft | 502 kts | 163° |
| 2026-05-04 22:20 | 34.92479 | 113.70214 | 38896 ft | 503 kts | 163° |
| 2026-05-04 22:20 | 34.85903 | 113.73106 | 38890 ft | 503 kts | 163° |
| 2026-05-04 22:21 | 34.79233 | 113.75573 | 38903 ft | 500 kts | 169° |
| 2026-05-04 22:21 | 34.72489 | 113.77648 | 38905 ft | 500 kts | 169° |
| 2026-05-04 22:22 | 34.65750 | 113.79760 | 38911 ft | 500 kts | 169° |
| 2026-05-04 22:22 | 34.59025 | 113.81949 | 38910 ft | 500 kts | 168° |
| 2026-05-04 22:23 | 34.52305 | 113.84167 | 38910 ft | 501 kts | 168° |
| 2026-05-04 22:23 | 34.45574 | 113.86353 | 38911 ft | 501 kts | 169° |
| 2026-05-04 22:24 | 34.38828 | 113.88469 | 38914 ft | 501 kts | 169° |
| 2026-05-04 22:24 | 34.32083 | 113.90581 | 38914 ft | 501 kts | 169° |
| 2026-05-04 22:25 | 34.25342 | 113.92700 | 38919 ft | 501 kts | 169° |
| 2026-05-04 22:25 | 34.18595 | 113.94823 | 38920 ft | 501 kts | 169° |
| 2026-05-04 22:26 | 34.11850 | 113.96943 | 38920 ft | 501 kts | 169° |
| 2026-05-04 22:26 | 34.05114 | 113.99057 | 38921 ft | 501 kts | 169° |
| 2026-05-04 22:27 | 33.98369 | 114.01169 | 38926 ft | 501 kts | 169° |
| 2026-05-04 22:27 | 33.91627 | 114.03277 | 38928 ft | 501 kts | 169° |
| 2026-05-04 22:28 | 33.84886 | 114.05381 | 38925 ft | 501 kts | 169° |
| 2026-05-04 22:28 | 33.78145 | 114.07485 | 38926 ft | 500 kts | 170° |
| 2026-05-04 22:29 | 33.71431 | 114.09583 | 38928 ft | 497 kts | 170° |
| 2026-05-04 22:29 | 33.64737 | 114.11656 | 38928 ft | 497 kts | 170° |
| 2026-05-04 22:30 | 33.58041 | 114.13728 | 38936 ft | 497 kts | 170° |
| 2026-05-04 22:30 | 33.51344 | 114.15800 | 38930 ft | 497 kts | 170° |
| 2026-05-04 22:31 | 33.44671 | 114.18014 | 38937 ft | 501 kts | 164° |
| 2026-05-04 22:31 | 33.38576 | 114.22148 | 38932 ft | 511 kts | 142° |
| 2026-05-04 22:31 | 33.36100 | 114.25128 | 38934 ft | 515 kts | 130° |
| 2026-05-04 22:32 | 33.34109 | 114.28695 | 38938 ft | 518 kts | 118° |
| 2026-05-04 22:32 | 33.31309 | 114.36639 | 38936 ft | 520 kts | 111° |
| 2026-05-04 22:33 | 33.28830 | 114.44764 | 38935 ft | 521 kts | 110° |
| 2026-05-04 22:33 | 33.26363 | 114.52917 | 38945 ft | 522 kts | 110° |
| 2026-05-04 22:34 | 33.24272 | 114.59730 | 38949 ft | 522 kts | 111° |
| 2026-05-04 22:34 | 33.21762 | 114.67798 | 38946 ft | 522 kts | 111° |
| 2026-05-04 22:35 | 33.19226 | 114.75907 | 38946 ft | 522 kts | 111° |
| 2026-05-04 22:35 | 33.16671 | 114.84012 | 38959 ft | 522 kts | 111° |
| 2026-05-04 22:36 | 33.14108 | 114.92110 | 38935 ft | 522 kts | 111° |
| 2026-05-04 22:36 | 33.11540 | 115.00216 | 38943 ft | 523 kts | 111° |
| 2026-05-04 22:37 | 33.08966 | 115.08319 | 38953 ft | 522 kts | 111° |
| 2026-05-04 22:37 | 33.06393 | 115.16406 | 38958 ft | 521 kts | 111° |
| 2026-05-04 22:38 | 33.03819 | 115.24477 | 38962 ft | 521 kts | 111° |
| 2026-05-04 22:38 | 33.01238 | 115.32547 | 38961 ft | 521 kts | 111° |
| 2026-05-04 22:39 | 32.98652 | 115.40612 | 38958 ft | 522 kts | 111° |
| 2026-05-04 22:39 | 32.96072 | 115.48688 | 38960 ft | 522 kts | 111° |
| 2026-05-04 22:40 | 32.93533 | 115.56787 | 38968 ft | 522 kts | 111° |
| 2026-05-04 22:40 | 32.90995 | 115.64887 | 38976 ft | 522 kts | 111° |
| 2026-05-04 22:41 | 32.88158 | 115.72822 | 38972 ft | 520 kts | 122° |
| 2026-05-04 22:41 | 32.83905 | 115.79729 | 38971 ft | 517 kts | 132° |
| 2026-05-04 22:42 | 32.79298 | 115.86292 | 38971 ft | 517 kts | 133° |
| 2026-05-04 22:42 | 32.74640 | 115.92798 | 38969 ft | 517 kts | 133° |
| 2026-05-04 22:43 | 32.69994 | 115.99321 | 38975 ft | 517 kts | 133° |
| 2026-05-04 22:43 | 32.65356 | 116.05855 | 38979 ft | 518 kts | 133° |
| 2026-05-04 22:44 | 32.60709 | 116.12400 | 38981 ft | 519 kts | 134° |
| 2026-05-04 22:44 | 32.56059 | 116.18942 | 38979 ft | 519 kts | 134° |
| 2026-05-04 22:45 | 32.51470 | 116.25561 | 38977 ft | 520 kts | 132° |
| 2026-05-04 22:45 | 32.44641 | 116.35553 | 38982 ft | 521 kts | 133° |
| 2026-05-04 22:46 | 32.40070 | 116.42197 | 38985 ft | 521 kts | 133° |
| 2026-05-04 22:46 | 32.35488 | 116.48829 | 38985 ft | 521 kts | 133° |
| 2026-05-04 22:47 | 32.30899 | 116.55455 | 38987 ft | 521 kts | 133° |
| 2026-05-04 22:47 | 32.26308 | 116.62076 | 38986 ft | 522 kts | 133° |
| 2026-05-04 22:48 | 32.21723 | 116.68672 | 38991 ft | 523 kts | 134° |
| 2026-05-04 22:48 | 32.17100 | 116.75308 | 38994 ft | 523 kts | 134° |
| 2026-05-04 22:49 | 32.12405 | 116.81855 | 38993 ft | 523 kts | 135° |
| 2026-05-04 22:49 | 32.07681 | 116.88371 | 38987 ft | 523 kts | 135° |
| 2026-05-04 22:50 | 32.02956 | 116.94900 | 38992 ft | 523 kts | 135° |
| 2026-05-04 22:50 | 31.98237 | 117.01429 | 38991 ft | 523 kts | 135° |
| 2026-05-04 22:51 | 31.93525 | 117.07970 | 38994 ft | 524 kts | 135° |
| 2026-05-04 22:51 | 31.88808 | 117.14516 | 38995 ft | 524 kts | 135° |
| 2026-05-04 22:52 | 31.84090 | 117.21054 | 38997 ft | 524 kts | 135° |
| 2026-05-04 22:52 | 31.81228 | 117.25097 | 38998 ft | 527 kts | 131° |
| 2026-05-04 22:53 | 31.78393 | 117.30855 | 39002 ft | 535 kts | 114° |
| 2026-05-04 22:53 | 31.77317 | 117.35050 | 39000 ft | 539 kts | 102° |
| 2026-05-04 22:53 | 31.76790 | 117.39407 | 39003 ft | 540 kts | 97° |
| 2026-05-04 22:54 | 31.76138 | 117.48206 | 38996 ft | 541 kts | 95° |
| 2026-05-04 22:54 | 31.75605 | 117.57043 | 39011 ft | 542 kts | 95° |
| 2026-05-04 22:55 | 31.75030 | 117.65882 | 39011 ft | 543 kts | 95° |
| 2026-05-04 22:55 | 31.74412 | 117.74720 | 39013 ft | 543 kts | 96° |
| 2026-05-04 22:56 | 31.73777 | 117.83557 | 39008 ft | 543 kts | 96° |
| 2026-05-04 22:56 | 31.73136 | 117.92384 | 39011 ft | 543 kts | 96° |
| 2026-05-04 22:57 | 31.72490 | 118.01208 | 39016 ft | 541 kts | 95° |
| 2026-05-04 22:57 | 31.71842 | 118.10003 | 39009 ft | 540 kts | 96° |
| 2026-05-04 22:58 | 31.71217 | 118.18804 | 39015 ft | 541 kts | 95° |
| 2026-05-04 22:58 | 31.70610 | 118.27608 | 39015 ft | 541 kts | 95° |
| 2026-05-04 22:59 | 31.69995 | 118.36421 | 39017 ft | 541 kts | 95° |
| 2026-05-04 22:59 | 31.69370 | 118.45234 | 39018 ft | 542 kts | 96° |
| 2026-05-04 23:00 | 31.68735 | 118.54067 | 39020 ft | 542 kts | 96° |
| 2026-05-04 23:00 | 31.68094 | 118.62896 | 39022 ft | 543 kts | 96° |
| 2026-05-04 23:01 | 31.67452 | 118.71662 | 39019 ft | 543 kts | 96° |
| 2026-05-04 23:01 | 31.66797 | 118.80510 | 39020 ft | 544 kts | 96° |
| 2026-05-04 23:02 | 31.66137 | 118.89353 | 39020 ft | 544 kts | 96° |
| 2026-05-04 23:02 | 31.65471 | 118.98204 | 39019 ft | 544 kts | 96° |
| 2026-05-04 23:03 | 31.64815 | 119.07060 | 39028 ft | 545 kts | 95° |
| 2026-05-04 23:03 | 31.64349 | 119.15935 | 39028 ft | 545 kts | 94° |
| 2026-05-04 23:04 | 31.63989 | 119.24816 | 39027 ft | 545 kts | 94° |
| 2026-05-04 23:04 | 31.63623 | 119.33713 | 39055 ft | 546 kts | 94° |
| 2026-05-04 23:05 | 31.63228 | 119.42612 | 39031 ft | 545 kts | 94° |
| 2026-05-04 23:05 | 31.62807 | 119.51487 | 39034 ft | 545 kts | 94° |
| 2026-05-04 23:06 | 31.62377 | 119.60299 | 39034 ft | 545 kts | 95° |
| 2026-05-04 23:06 | 31.61942 | 119.69190 | 39034 ft | 546 kts | 95° |
| 2026-05-04 23:07 | 31.61535 | 119.78087 | 39042 ft | 546 kts | 94° |
| 2026-05-04 23:07 | 31.61125 | 119.86991 | 39041 ft | 546 kts | 95° |
| 2026-05-04 23:08 | 31.60707 | 119.95887 | 39043 ft | 547 kts | 95° |
| 2026-05-04 23:08 | 31.60496 | 120.00317 | 38759 ft | 542 kts | 95° |
| 2026-05-04 23:08 | 31.60285 | 120.04727 | 38175 ft | 541 kts | 95° |
| 2026-05-04 23:09 | 31.60072 | 120.09133 | 37619 ft | 540 kts | 95° |
| 2026-05-04 23:09 | 31.59859 | 120.13527 | 37026 ft | 539 kts | 95° |
| 2026-05-04 23:09 | 31.59644 | 120.17912 | 36416 ft | 539 kts | 95° |
| 2026-05-04 23:09 | 31.59428 | 120.22299 | 35867 ft | 538 kts | 95° |
| 2026-05-04 23:10 | 31.59211 | 120.26670 | 35340 ft | 536 kts | 96° |
| 2026-05-04 23:10 | 31.58938 | 120.31020 | 34761 ft | 533 kts | 101° |
| 2026-05-04 23:10 | 31.58059 | 120.35202 | 34242 ft | 525 kts | 113° |
| 2026-05-04 23:10 | 31.56863 | 120.39230 | 33609 ft | 522 kts | 114° |
| 2026-05-04 23:11 | 31.55637 | 120.43229 | 32874 ft | 522 kts | 114° |
| 2026-05-04 23:11 | 31.54412 | 120.47243 | 32133 ft | 522 kts | 114° |
| 2026-05-04 23:11 | 31.53199 | 120.51253 | 31460 ft | 521 kts | 113° |
| 2026-05-04 23:11 | 31.51992 | 120.55256 | 30790 ft | 520 kts | 113° |
| 2026-05-04 23:12 | 31.50790 | 120.59250 | 30089 ft | 519 kts | 113° |
| 2026-05-04 23:12 | 31.49593 | 120.63231 | 29331 ft | 516 kts | 112° |
| 2026-05-04 23:12 | 31.48406 | 120.67179 | 28683 ft | 512 kts | 112° |
| 2026-05-04 23:12 | 31.47230 | 120.71085 | 28075 ft | 506 kts | 112° |
| 2026-05-04 23:13 | 31.46065 | 120.74952 | 27498 ft | 500 kts | 112° |
| 2026-05-04 23:13 | 31.44913 | 120.78768 | 26929 ft | 494 kts | 112° |
| 2026-05-04 23:13 | 31.43772 | 120.82546 | 26372 ft | 489 kts | 112° |
| 2026-05-04 23:13 | 31.42646 | 120.86273 | 25827 ft | 483 kts | 112° |
| 2026-05-04 23:14 | 31.41540 | 120.89948 | 25169 ft | 473 kts | 111° |
| 2026-05-04 23:14 | 31.40468 | 120.93504 | 24020 ft | 460 kts | 111° |
| 2026-05-04 23:14 | 31.39403 | 120.97022 | 22975 ft | 457 kts | 111° |
| 2026-05-04 23:14 | 31.38349 | 121.00504 | 22072 ft | 451 kts | 111° |
| 2026-05-04 23:15 | 31.37309 | 121.03936 | 21199 ft | 445 kts | 111° |
| 2026-05-04 23:15 | 31.36281 | 121.07327 | 20348 ft | 440 kts | 111° |
| 2026-05-04 23:15 | 31.35264 | 121.10677 | 19520 ft | 434 kts | 111° |
| 2026-05-04 23:15 | 31.34257 | 121.13982 | 18838 ft | 426 kts | 111° |
| 2026-05-04 23:16 | 31.33264 | 121.17177 | 18495 ft | 408 kts | 111° |
| 2026-05-04 23:16 | 31.32321 | 121.20206 | 18076 ft | 384 kts | 111° |
| 2026-05-04 23:16 | 31.31435 | 121.23053 | 17601 ft | 364 kts | 111° |
| 2026-05-04 23:16 | 31.30585 | 121.25782 | 16982 ft | 351 kts | 111° |
| 2026-05-04 23:17 | 31.29759 | 121.28432 | 16311 ft | 343 kts | 111° |
| 2026-05-04 23:17 | 31.28950 | 121.31043 | 15700 ft | 339 kts | 110° |
| 2026-05-04 23:17 | 31.28531 | 121.33703 | 15019 ft | 334 kts | 87° |
| 2026-05-04 23:17 | 31.28846 | 121.36366 | 14364 ft | 329 kts | 78° |
| 2026-05-04 23:18 | 31.29306 | 121.38966 | 13686 ft | 325 kts | 77° |
| 2026-05-04 23:18 | 31.29765 | 121.41525 | 12998 ft | 320 kts | 77° |
| 2026-05-04 23:18 | 31.30388 | 121.43983 | 12254 ft | 313 kts | 62° |
| 2026-05-04 23:18 | 31.31185 | 121.45365 | 11795 ft | 307 kts | 46° |
| 2026-05-04 23:19 | 31.32826 | 121.46904 | 11162 ft | 299 kts | 31° |
| 2026-05-04 23:19 | 31.34588 | 121.48157 | 10510 ft | 294 kts | 28° |
| 2026-05-04 23:19 | 31.36345 | 121.49357 | 9876 ft | 290 kts | 29° |
| 2026-05-04 23:19 | 31.38075 | 121.50528 | 9152 ft | 286 kts | 28° |
| 2026-05-04 23:20 | 31.39781 | 121.51693 | 8433 ft | 282 kts | 29° |
| 2026-05-04 23:20 | 31.41408 | 121.52951 | 7644 ft | 280 kts | 41° |
| 2026-05-04 23:20 | 31.42500 | 121.54825 | 6918 ft | 281 kts | 68° |
| 2026-05-04 23:20 | 31.42862 | 121.57067 | 6315 ft | 284 kts | 91° |
| 2026-05-04 23:21 | 31.42443 | 121.59316 | 5954 ft | 284 kts | 110° |
| 2026-05-04 23:21 | 31.41703 | 121.61440 | 5621 ft | 281 kts | 113° |
| 2026-05-04 23:21 | 31.40933 | 121.63523 | 5314 ft | 277 kts | 113° |
| 2026-05-04 23:21 | 31.40177 | 121.65580 | 5073 ft | 270 kts | 114° |
| 2026-05-04 23:22 | 31.39457 | 121.67564 | 4892 ft | 259 kts | 113° |
| 2026-05-04 23:22 | 31.38775 | 121.69463 | 4760 ft | 248 kts | 113° |
| 2026-05-04 23:22 | 31.38121 | 121.71290 | 4572 ft | 239 kts | 114° |
| 2026-05-04 23:22 | 31.37336 | 121.72956 | 4313 ft | 231 kts | 136° |
| 2026-05-04 23:23 | 31.36072 | 121.74032 | 4120 ft | 223 kts | 156° |
| 2026-05-04 23:23 | 31.34607 | 121.74607 | 3831 ft | 222 kts | 167° |
| 2026-05-04 23:23 | 31.33146 | 121.75094 | 3520 ft | 214 kts | 163° |
| 2026-05-04 23:23 | 31.31800 | 121.75628 | 3242 ft | 201 kts | 163° |
| 2026-05-04 23:24 | 31.30507 | 121.76127 | 2954 ft | 191 kts | 163° |
| 2026-05-04 23:24 | 31.29270 | 121.76591 | 2705 ft | 183 kts | 163° |
| 2026-05-04 23:24 | 31.28086 | 121.77041 | 2455 ft | 172 kts | 163° |
| 2026-05-04 23:24 | 31.26995 | 121.77456 | 2233 ft | 159 kts | 163° |
| 2026-05-04 23:25 | 31.25989 | 121.77838 | 2043 ft | 144 kts | 163° |
| 2026-05-04 23:25 | 31.25074 | 121.78185 | 1854 ft | 135 kts | 163° |
| 2026-05-04 23:25 | 31.24183 | 121.78522 | 1688 ft | 135 kts | 163° |
| 2026-05-04 23:25 | 31.23293 | 121.78860 | 1504 ft | 134 kts | 162° |
| 2026-05-04 23:26 | 31.22407 | 121.79198 | 1322 ft | 134 kts | 162° |
| 2026-05-04 23:26 | 31.21524 | 121.79532 | 1141 ft | 133 kts | 162° |
| 2026-05-04 23:26 | 31.20647 | 121.79865 | 974 ft | 133 kts | 162° |
| 2026-05-04 23:26 | 31.19768 | 121.80200 | 807 ft | 134 kts | 163° |
| 2026-05-04 23:27 | 31.18887 | 121.80544 | 661 ft | 134 kts | 160° |
| 2026-05-04 23:27 | 31.18003 | 121.80877 | 449 ft | 132 kts | 164° |
| 2026-05-04 23:27 | 31.17124 | 121.81204 | 302 ft | 133 kts | 161° |
| 2026-05-04 23:27 | 31.16231 | 121.81540 | 132 ft | 137 kts | 162° |
| 2026-05-04 23:28 | 31.15333 | 121.81877 | 40 ft | 128 kts | 161° |
| 2026-05-04 23:28 | 31.14586 | 121.82161 | 28 ft | 91 kts | 162° |
| 2026-05-04 23:28 | 31.14146 | 121.82325 | 26 ft | 45 kts | 162° |
| 2026-05-04 23:28 | 31.13912 | 121.82414 | 30 ft | 32 kts | 163° |
| 2026-05-04 23:29 | 31.13710 | 121.82443 | 29 ft | 25 kts | 191° |
| 2026-05-04 23:29 | 31.13577 | 121.82407 | 26 ft | 10 kts | 208° |
| 2026-05-04 23:29 | 31.13570 | 121.82345 | 26 ft | 8 kts | 301° |
| 2026-05-04 23:29 | 31.13632 | 121.82311 | 26 ft | 12 kts | 341° |
| 2026-05-04 23:30 | 31.13714 | 121.82279 | 27 ft | 13 kts | 342° |
| 2026-05-04 23:30 | 31.13807 | 121.82244 | 27 ft | 15 kts | 342° |
| 2026-05-04 23:30 | 31.13914 | 121.82205 | 27 ft | 17 kts | 342° |
| 2026-05-04 23:30 | 31.14033 | 121.82160 | 27 ft | 19 kts | 341° |
| 2026-05-04 23:31 | 31.14165 | 121.82110 | 27 ft | 21 kts | 342° |
| 2026-05-04 23:31 | 31.14311 | 121.82054 | 27 ft | 23 kts | 342° |
| 2026-05-04 23:31 | 31.14468 | 121.81995 | 26 ft | 24 kts | 342° |
| 2026-05-04 23:31 | 31.14635 | 121.81931 | 29 ft | 25 kts | 342° |
| 2026-05-04 23:32 | 31.14790 | 121.81873 | 30 ft | 24 kts | 342° |
| 2026-05-04 23:32 | 31.14954 | 121.81812 | 30 ft | 26 kts | 342° |
| 2026-05-04 23:32 | 31.15120 | 121.81748 | 26 ft | 24 kts | 342° |
| 2026-05-04 23:32 | 31.15240 | 121.81701 | 27 ft | 0 kts | 339° |
| 2026-05-04 23:33 | 31.15241 | 121.81700 | 27 ft | 1 kts | 338° |
| 2026-05-04 23:34 | 31.15251 | 121.81693 | 27 ft | 3 kts | 328° |
| 2026-05-04 23:34 | 31.15287 | 121.81652 | 27 ft | 9 kts | 314° |
| 2026-05-04 23:34 | 31.15344 | 121.81601 | 27 ft | 12 kts | 332° |
| 2026-05-04 23:34 | 31.15428 | 121.81566 | 27 ft | 14 kts | 342° |
| 2026-05-04 23:35 | 31.15508 | 121.81510 | 27 ft | 11 kts | 290° |
| 2026-05-04 23:35 | 31.15493 | 121.81434 | 27 ft | 11 kts | 252° |
| 2026-05-04 23:35 | 31.15466 | 121.81333 | 30 ft | 15 kts | 253° |
| 2026-05-04 23:35 | 31.15431 | 121.81210 | 32 ft | 17 kts | 251° |
| 2026-05-04 23:36 | 31.15393 | 121.81074 | 27 ft | 18 kts | 252° |
| 2026-05-04 23:36 | 31.15355 | 121.80937 | 27 ft | 12 kts | 252° |
| 2026-05-04 23:36 | 31.15362 | 121.80845 | 27 ft | 12 kts | 309° |
| 2026-05-04 23:36 | 31.15437 | 121.80806 | 27 ft | 12 kts | 342° |
| 2026-05-04 23:37 | 31.15518 | 121.80775 | 27 ft | 13 kts | 342° |
| 2026-05-04 23:37 | 31.15615 | 121.80739 | 27 ft | 16 kts | 342° |
| 2026-05-04 23:37 | 31.15723 | 121.80699 | 27 ft | 16 kts | 342° |
| 2026-05-04 23:37 | 31.15830 | 121.80658 | 27 ft | 15 kts | 341° |
| 2026-05-04 23:38 | 31.15910 | 121.80618 | 27 ft | 8 kts | 308° |
| 2026-05-04 23:38 | 31.15906 | 121.80573 | 27 ft | 5 kts | 248° |
| 2026-05-04 23:38 | 31.15900 | 121.80555 | 27 ft | 1 kts | 249° |
| 2026-05-04 23:38 | 31.15895 | 121.80538 | 27 ft | 3 kts | 251° |
| 2026-05-04 23:39 | 31.15893 | 121.80527 | 27 ft | 0 kts | 252° |
| 2026-05-04 23:39 | 31.15892 | 121.80527 | 27 ft | 0 kts | 252° |